Data for 10/02/2011

Time Sea-Level Adjusted Pressure Absolute Pressure Temperature Relative Humidity Dew Point Precipitation   
(mb) (inHg) (mb) (inHg) (C) (F) (%) (C) (F) (mm) (in)
00:01 1019 30.09 848 25.04 12.1 53.8 51 2.3 36.1 -88.1 -3.469
00:02 1019 30.09 848 25.04 12.2 53.9 50 2.2 35.9 -88.1 -3.469
00:03 1019 30.09 848 25.04 12.3 54.1 50 2.2 36 -88.1 -3.469
00:04 1019 30.09 848 25.04 12.3 54.1 51 2.4 36.4 -88.1 -3.469
00:05 1019 30.09 848 25.04 12.1 53.8 52 2.6 36.6 -88.1 -3.469
00:06 1019 30.09 848 25.04 11.9 53.4 52 2.5 36.5 -88.1 -3.469
00:07 1019 30.09 848 25.04 11.8 53.3 53 2.5 36.6 -88.1 -3.469
00:08 1019 30.09 848 25.04 11.7 53.1 53 2.5 36.5 -88.1 -3.469
00:09 1019 30.09 848 25.04 11.7 53 52 2.3 36.2 -88.1 -3.469
00:10 1019 30.09 848 25.04 11.8 53.2 52 2.3 36.2 -88.1 -3.469
00:11 1019 30.09 848 25.04 11.9 53.4 52 2.4 36.3 -88.1 -3.469
00:12 1019 30.09 848 25.04 11.9 53.4 52 2.5 36.5 -88.2 -3.472
00:13 1019 30.09 848 25.04 11.8 53.3 53 2.7 36.8 -88.2 -3.472
00:14 1019 30.09 848 25.04 11.7 53 54 2.6 36.8 -88.2 -3.472
00:15 1019 30.09 848 25.04 11.6 53 53 2.4 36.4 -88.2 -3.472
00:16 1019 30.09 848 25.04 11.8 53.2 53 2.5 36.4 -88.2 -3.472
00:17 1019 30.09 848 25.04 11.9 53.4 52 2.5 36.5 -88.2 -3.472
00:18 1019 30.09 848 25.04 11.9 53.5 52 2.4 36.3 -88.2 -3.472
00:19 1019 30.09 848 25.04 12.2 54 51 2.3 36.2 -88.2 -3.472
00:20 1019 30.09 848 25.04 12.4 54.3 50 2.4 36.4 -88.2 -3.472
00:21 1019 30.09 848 25.04 12.4 54.3 51 2.6 36.7 -88.2 -3.472
00:22 1019 30.09 848 25.04 12.2 54 51 2.6 36.7 -88.2 -3.472
00:23 1019 30.09 848 25.04 12.1 53.7 52 2.7 36.9 -88.2 -3.472
00:24 1019 30.09 848 25.04 11.9 53.3 53 2.8 37 -88.2 -3.472
00:25 1019 30.09 848 25.04 11.7 53.1 54 2.9 37.2 -88.2 -3.472
00:26 1019 30.09 848 25.04 11.5 52.8 55 2.8 37.1 -88.2 -3.472
00:27 1019 30.09 848 25.04 11.5 52.6 55 2.8 37 -88.2 -3.472
00:28 1019 30.09 848 25.04 11.4 52.6 54 2.6 36.7 -88.2 -3.472
00:29 1019 30.09 848 25.04 11.6 52.8 54 2.6 36.7 -88.2 -3.472
00:30 1019 30.09 848 25.04 11.6 52.9 54 2.8 37 -88.2 -3.472
00:31 1019 30.09 848 25.04 11.6 53 54 2.7 36.9 -88.3 -3.476
00:32 1019 30.09 849 25.07 11.8 53.3 53 2.7 36.9 -88.3 -3.476
00:33 1019 30.09 849 25.07 12 53.6 52 2.5 36.4 -88.3 -3.476
00:34 1019 30.09 848 25.04 12.4 54.3 50 2.5 36.4 -88.3 -3.476
00:35 1019 30.09 848 25.04 12.8 55 50 2.8 37 -88.3 -3.476
00:36 1019 30.09 848 25.04 12.9 55.3 48 2.3 36.2 -88.3 -3.476
00:37 1019 30.09 848 25.04 13.3 56 48 2.6 36.6 -88.3 -3.476
00:38 1019 30.09 848 25.04 13.4 56.2 48 2.7 36.9 -88.3 -3.476
00:39 1019 30.09 848 25.04 13.4 56.1 49 2.9 37.2 -88.3 -3.476
00:40 1019 30.09 849 25.07 13.3 55.9 50 3.1 37.5 -88.3 -3.476
00:41 1019 30.09 848 25.04 13 55.3 51 3.1 37.6 -88.3 -3.476
00:42 1019 30.09 848 25.04 12.7 54.8 51 2.9 37.1 -88.3 -3.476
00:43 1019 30.09 848 25.04 12.6 54.6 51 2.8 37 -88.3 -3.476
00:44 1019 30.09 848 25.04 12.5 54.5 52 3 37.5 -88.3 -3.476
00:45 1019 30.09 848 25.04 12.2 54 53 2.9 37.2 -88.3 -3.476
00:46 1019 30.09 848 25.04 12 53.7 54 3 37.3 -88.3 -3.476
00:47 1019 30.09 848 25.04 11.9 53.4 53 2.7 36.9 -88.3 -3.476
00:48 1019 30.09 848 25.04 11.8 53.3 54 3 37.4 -88.3 -3.476
00:49 1019 30.09 848 25.04 11.7 53.1 54 2.9 37.1 -88.3 -3.476
00:50 1019 30.09 848 25.04 11.7 53 54 2.8 37 -88.3 -3.476
00:51 1019 30.09 848 25.04 11.8 53.2 55 3 37.3 -88.3 -3.476
00:52 1019 30.09 849 25.07 11.8 53.2 54 2.8 37.1 -88.3 -3.476
00:53 1019 30.09 849 25.07 11.7 53.1 55 2.9 37.3 -88.3 -3.476
00:54 1019 30.09 849 25.07 11.8 53.2 55 3 37.3 -88.3 -3.476
00:55 1019 30.09 849 25.07 11.7 53.1 55 3 37.4 -88.4 -3.48
00:56 1019 30.09 849 25.07 11.6 52.9 55 3 37.4 -88.4 -3.48
00:57 1019 30.09 849 25.07 11.8 53.2 54 2.8 37 -88.4 -3.48
00:58 1019 30.09 849 25.07 11.9 53.4 54 2.9 37.2 -88.4 -3.48
00:59 1019 30.09 849 25.07 12 53.6 53 2.8 37.1 -88.4 -3.48
01:00 1019 30.09 849 25.07 12.2 53.9 53 2.9 37.3 -88.4 -3.48
01:01 1019 30.09 849 25.07 12.3 54.1 52 2.7 36.9 -88.4 -3.48
01:02 1019 30.09 849 25.07 12.4 54.4 52 3 37.5 -88.4 -3.48
01:03 1019 30.09 849 25.07 12.5 54.4 53 3.1 37.6 -88.4 -3.48
01:04 1019 30.09 849 25.07 12.5 54.5 51 2.8 37.1 -88.4 -3.48
01:05 1019 30.09 849 25.07 12.6 54.8 51 2.8 37 -88.4 -3.48
01:06 1020 30.12 849 25.07 12.8 55.1 53 3.4 38.2 -88.4 -3.48
01:07 1020 30.12 849 25.07 12.8 55 55 3.9 39.1 -88.4 -3.48
01:08 1020 30.12 849 25.07 12.5 54.5 55 3.7 38.7 -88.4 -3.48
01:09 1020 30.12 849 25.07 12.5 54.4 50 2.5 36.5 -88.4 -3.48
01:10 1019 30.09 849 25.07 13.1 55.6 47 2.3 36.1 -88.4 -3.48
01:11 1020 30.12 849 25.07 13.8 56.8 48 2.9 37.3 -88.4 -3.48
01:12 1020 30.12 849 25.07 14 57.2 51 4 39.2 -88.4 -3.48
01:13 1020 30.12 849 25.07 13.9 57 49 3.5 38.3 -88.4 -3.48
01:14 1020 30.12 849 25.07 13.8 56.8 51 3.9 39.1 -88.4 -3.48
01:15 1020 30.12 849 25.07 13.7 56.7 52 4 39.2 -88.4 -3.48
01:16 1020 30.12 849 25.07 13.6 56.4 52 4 39.3 -88.4 -3.48
01:17 1020 30.12 849 25.07 13.4 56.1 53 4.1 39.3 -88.4 -3.48
01:18 1020 30.12 849 25.07 13.3 55.9 54 4.2 39.6 -88.4 -3.48
01:19 1020 30.12 849 25.07 13.2 55.8 54 4.1 39.4 -88.4 -3.48
01:20 1020 30.12 849 25.07 13.1 55.6 54 4 39.2 -88.4 -3.48
01:21 1020 30.12 849 25.07 13.1 55.5 54 4 39.2 -88.4 -3.48
01:22 1020 30.12 849 25.07 13.1 55.5 53 3.8 38.9 -88.4 -3.48
01:23 1020 30.12 849 25.07 13.1 55.5 53 3.9 38.9 -88.4 -3.48
01:24 1020 30.12 849 25.07 13.1 55.6 53 3.8 38.8 -88.4 -3.48
01:25 1020 30.12 849 25.07 13.1 55.6 53 3.9 39 -88.4 -3.48
01:26 1020 30.12 849 25.07 13.2 55.7 52 3.7 38.6 -88.4 -3.48
01:27 1020 30.12 849 25.07 13.2 55.8 52 3.5 38.4 -88.4 -3.48
01:28 1020 30.12 849 25.07 13.3 55.9 51 3.4 38.1 -88.4 -3.48
01:29 1020 30.12 849 25.07 13.4 56.1 51 3.5 38.3 -88.4 -3.48
01:30 1020 30.12 849 25.07 13.4 56.2 51 3.5 38.4 -88.4 -3.48
01:31 1020 30.12 849 25.07 13.4 56.2 50 3.4 38.1 -88.4 -3.48
01:32 1020 30.12 849 25.07 13.5 56.2 50 3.4 38.1 -88.4 -3.48
01:33 1020 30.12 849 25.07 13.5 56.3 50 3.5 38.2 -88.4 -3.48
01:34 1020 30.12 849 25.07 13.5 56.3 50 3.4 38.2 -88.4 -3.48
01:35 1020 30.12 849 25.07 13.5 56.3 50 3.4 38.2 -88.4 -3.48
01:36 1020 30.12 849 25.07 13.5 56.3 51 3.6 38.4 -88.4 -3.48
01:37 1020 30.12 849 25.07 13.4 56.1 52 3.7 38.6 -88.4 -3.48
01:38 1020 30.12 849 25.07 13.2 55.8 53 3.8 38.9 -88.4 -3.48
01:39 1020 30.12 849 25.07 13 55.4 54 3.9 39 -88.4 -3.48
01:40 1020 30.12 849 25.07 12.8 55.1 55 4 39.2 -88.4 -3.48
01:41 1020 30.12 849 25.07 12.7 54.8 56 4.1 39.4 -88.4 -3.48
01:42 1020 30.12 849 25.07 12.4 54.4 57 4.2 39.5 -88.4 -3.48
01:43 1020 30.12 849 25.07 12.2 54 57 4.2 39.5 -88.4 -3.48
01:44 1020 30.12 849 25.07 12.1 53.7 58 4.2 39.6 -88.4 -3.48
01:45 1020 30.12 849 25.07 11.9 53.4 59 4.2 39.6 -88.4 -3.48
01:46 1020 30.12 849 25.07 11.7 53.1 60 4.3 39.8 -88.4 -3.48
01:47 1020 30.12 849 25.07 11.5 52.8 60 4.1 39.4 -88.4 -3.48
01:48 1020 30.12 849 25.07 11.5 52.7 60 4.1 39.5 -88.4 -3.48
01:49 1020 30.12 849 25.07 11.5 52.7 60 4 39.3 -88.4 -3.48
01:50 1020 30.12 849 25.07 11.5 52.7 59 3.8 38.8 -88.4 -3.48
01:51 1020 30.12 849 25.07 11.7 53 58 3.7 38.6 -88.4 -3.48
01:52 1020 30.12 849 25.07 11.9 53.5 56 3.5 38.3 -88.4 -3.48
01:53 1020 30.12 849 25.07 12.2 54 54 3.4 38.1 -88.4 -3.48
01:54 1020 30.12 849 25.07 12.5 54.6 54 3.5 38.3 -88.4 -3.48
01:55 1020 30.12 849 25.07 12.8 55 53 3.6 38.5 -88.4 -3.48
01:56 1020 30.12 849 25.07 13 55.3 53 3.6 38.5 -88.4 -3.48
01:57 1020 30.12 849 25.07 13.1 55.5 53 3.8 38.9 -88.4 -3.48
01:58 1020 30.12 849 25.07 13.1 55.5 53 3.9 39 -88.4 -3.48
01:59 1020 30.12 849 25.07 13 55.5 53 3.8 38.9 -88.4 -3.48
02:00 1020 30.12 849 25.07 13.1 55.5 52 3.6 38.4 -88.4 -3.48
02:01 1020 30.12 849 25.07 13.2 55.8 51 3.4 38.2 -88.4 -3.48
02:02 1020 30.12 849 25.07 13.4 56.1 51 3.6 38.5 -88.4 -3.48
02:03 1020 30.12 849 25.07 13.5 56.2 51 3.7 38.7 -88.4 -3.48
02:04 1020 30.12 849 25.07 13.5 56.2 51 3.7 38.7 -88.5 -3.484
02:05 1020 30.12 849 25.07 13.5 56.3 51 3.6 38.5 -88.5 -3.484
02:06 1020 30.12 849 25.07 13.5 56.4 51 3.7 38.7 -88.5 -3.484
02:07 1020 30.12 849 25.07 13.5 56.4 51 3.8 38.8 -88.5 -3.484
02:08 1020 30.12 849 25.07 13.6 56.4 50 3.5 38.4 -88.5 -3.484
02:09 1020 30.12 849 25.07 13.6 56.5 51 3.6 38.6 -88.5 -3.484
02:10 1020 30.12 849 25.07 13.7 56.7 51 3.7 38.7 -88.5 -3.484
02:11 1020 30.12 849 25.07 13.7 56.6 51 3.8 38.9 -88.5 -3.484
02:12 1020 30.12 849 25.07 13.6 56.6 52 4 39.2 -88.5 -3.484
02:13 1020 30.12 849 25.07 13.6 56.4 52 4.1 39.4 -88.5 -3.484
02:14 1020 30.12 849 25.07 13.5 56.3 52 4 39.2 -88.5 -3.484
02:15 1020 30.12 849 25.07 13.5 56.2 52 3.9 39.1 -88.5 -3.484
02:16 1020 30.12 849 25.07 13.4 56.1 52 3.8 38.8 -88.5 -3.484
02:17 1020 30.12 849 25.07 13.3 56 51 3.5 38.3 -88.5 -3.484
02:18 1020 30.12 849 25.07 13.4 56.2 52 3.8 38.8 -88.5 -3.484
02:19 1020 30.12 849 25.07 13.5 56.3 52 3.9 39 -88.5 -3.484
02:20 1020 30.12 849 25.07 13.3 56 54 4.2 39.6 -88.5 -3.484
02:21 1020 30.12 849 25.07 13.1 55.5 54 4 39.2 -88.5 -3.484
02:22 1020 30.12 849 25.07 12.9 55.3 54 3.9 38.9 -88.5 -3.484
02:23 1020 30.12 849 25.07 12.9 55.2 54 4 39.2 -88.5 -3.484
02:24 1020 30.12 849 25.07 12.8 55.1 53 3.6 38.6 -88.5 -3.484
02:25 1020 30.12 849 25.07 13 55.3 52 3.5 38.3 -88.5 -3.484
02:26 1020 30.12 849 25.07 13.1 55.6 52 3.5 38.3 -88.5 -3.484
02:27 1020 30.12 849 25.07 13.1 55.6 51 3.4 38.1 -88.5 -3.484
02:28 1020 30.12 849 25.07 13.3 55.9 51 3.3 37.9 -88.5 -3.484
02:29 1020 30.12 849 25.07 13.5 56.2 50 3.4 38.1 -88.5 -3.484
02:30 1020 30.12 849 25.07 13.6 56.4 50 3.3 38 -88.5 -3.484
02:31 1020 30.12 849 25.07 13.6 56.5 49 3.3 37.9 -88.5 -3.484
02:32 1020 30.12 849 25.07 13.6 56.4 50 3.4 38 -88.5 -3.484
02:33 1020 30.12 849 25.07 13.6 56.5 51 3.6 38.5 -88.5 -3.484
02:34 1020 30.12 849 25.07 13.5 56.4 50 3.5 38.3 -88.5 -3.484
02:35 1020 30.12 849 25.07 13.5 56.3 50 3.4 38.1 -88.5 -3.484
02:36 1020 30.12 849 25.07 13.5 56.4 52 3.9 39 -88.5 -3.484
02:37 1020 30.12 849 25.07 13.3 56 52 3.7 38.7 -88.5 -3.484
02:38 1020 30.12 849 25.07 13.2 55.8 53 3.9 39 -88.5 -3.484
02:39 1020 30.12 849 25.07 13.1 55.5 54 4 39.2 -88.5 -3.484
02:40 1020 30.12 849 25.07 12.9 55.3 52 3.4 38.1 -88.5 -3.484
02:41 1020 30.12 849 25.07 13.1 55.5 52 3.5 38.2 -88.5 -3.484
02:42 1020 30.12 849 25.07 13.2 55.7 52 3.6 38.6 -88.5 -3.484
02:43 1020 30.12 849 25.07 13 55.4 52 3.5 38.3 -88.5 -3.484
02:44 1020 30.12 849 25.07 13 55.4 53 3.7 38.6 -88.5 -3.484
02:45 1020 30.12 849 25.07 13.1 55.6 51 3.2 37.7 -88.5 -3.484
02:46 1020 30.12 849 25.07 13.4 56 49 3 37.5 -88.5 -3.484
02:47 1020 30.12 849 25.07 13.6 56.4 49 3.1 37.6 -88.5 -3.484
02:48 1020 30.12 849 25.07 13.7 56.7 49 3.2 37.8 -88.5 -3.484
02:49 1020 30.12 849 25.07 13.8 56.8 49 3.3 37.9 -88.5 -3.484
02:50 1020 30.12 849 25.07 13.8 56.9 49 3.3 37.9 -88.5 -3.484
02:51 1020 30.12 849 25.07 14.1 57.4 47 3.1 37.6 -88.5 -3.484
02:52 1019 30.09 849 25.07 14.3 57.7 46 3 37.4 -88.5 -3.484
02:53 1019 30.09 849 25.07 14.3 57.7 47 3.3 37.9 -88.5 -3.484
02:54 1019 30.09 849 25.07 14.2 57.6 47 3.3 37.9 -88.5 -3.484
02:55 1020 30.12 849 25.07 14.1 57.5 48 3.3 37.9 -88.5 -3.484
02:56 1019 30.09 849 25.07 13.9 57.1 49 3.5 38.3 -88.5 -3.484
02:57 1019 30.09 849 25.07 13.7 56.6 50 3.4 38.2 -88.5 -3.484
02:58 1019 30.09 849 25.07 13.5 56.3 50 3.4 38.2 -88.5 -3.484
02:59 1019 30.09 849 25.07 13.3 55.9 51 3.4 38.2 -88.5 -3.484
03:00 1019 30.09 849 25.07 13.1 55.5 51 3.3 37.9 -88.5 -3.484
03:01 1019 30.09 849 25.07 13 55.3 52 3.3 37.9 -88.5 -3.484
03:02 1020 30.12 849 25.07 12.9 55.1 52 3.4 38.1 -88.5 -3.484
03:03 1020 30.12 849 25.07 12.7 54.8 53 3.3 38 -88.5 -3.484
03:04 1019 30.09 849 25.07 12.6 54.6 53 3.2 37.8 -88.5 -3.484
03:05 1019 30.09 849 25.07 12.7 54.8 52 3.3 37.9 -88.5 -3.484
03:06 1020 30.12 849 25.07 12.7 54.9 52 3.3 38 -88.5 -3.484
03:07 1020 30.12 849 25.07 12.6 54.7 53 3.3 37.9 -88.5 -3.484
03:08 1020 30.12 849 25.07 12.6 54.7 52 3.2 37.7 -88.6 -3.488
03:09 1020 30.12 849 25.07 12.7 54.9 52 3.3 37.9 -88.6 -3.488
03:10 1020 30.12 849 25.07 12.6 54.7 52 3.2 37.7 -88.6 -3.488
03:11 1020 30.12 849 25.07 12.7 54.8 53 3.4 38.1 -88.6 -3.488
03:12 1020 30.12 849 25.07 12.5 54.5 53 3.3 37.9 -88.6 -3.488
03:13 1020 30.12 849 25.07 12.4 54.4 53 3.1 37.6 -88.6 -3.488
03:14 1020 30.12 849 25.07 12.5 54.5 52 2.9 37.3 -88.6 -3.488
03:15 1020 30.12 849 25.07 12.7 54.8 51 2.8 37.1 -88.6 -3.488
03:16 1020 30.12 849 25.07 12.9 55.2 50 2.8 37 -88.6 -3.488
03:17 1020 30.12 849 25.07 13.2 55.7 48 2.6 36.7 -88.6 -3.488
03:18 1020 30.12 849 25.07 13.4 56.1 47 2.5 36.4 -88.6 -3.488
03:19 1020 30.12 849 25.07 13.7 56.7 48 3 37.4 -88.6 -3.488
03:20 1020 30.12 849 25.07 13.6 56.6 48 2.9 37.3 -88.6 -3.488
03:21 1019 30.09 849 25.07 13.6 56.4 47 2.6 36.7 -88.6 -3.488
03:22 1019 30.09 849 25.07 13.7 56.7 47 2.7 36.9 -88.6 -3.488
03:23 1019 30.09 849 25.07 14.1 57.3 46 2.6 36.6 -88.6 -3.488
03:24 1019 30.09 849 25.07 14.7 58.5 43 2.5 36.4 -88.6 -3.488
03:25 1019 30.09 849 25.07 15.1 59.2 42 2.5 36.5 -88.6 -3.488
03:26 1020 30.12 849 25.07 15.4 59.7 42 2.6 36.7 -88.6 -3.488
03:27 1020 30.12 849 25.07 15.5 60 42 2.7 36.9 -88.7 -3.492
03:28 1020 30.12 849 25.07 15.4 59.6 42 2.6 36.7 -88.7 -3.492
03:29 1020 30.12 849 25.07 15.1 59.2 43 2.8 37 -88.7 -3.492
03:30 1020 30.12 849 25.07 15 59 43 2.5 36.6 -88.7 -3.492
03:31 1020 30.12 849 25.07 15 59 43 2.6 36.7 -88.7 -3.492
03:32 1019 30.09 849 25.07 14.9 58.9 43 2.6 36.7 -88.7 -3.492
03:33 1019 30.09 849 25.07 14.8 58.6 43 2.5 36.5 -88.7 -3.492
03:34 1020 30.12 849 25.07 14.9 58.8 43 2.6 36.7 -88.7 -3.492
03:35 1019 30.09 849 25.07 15 59 43 2.6 36.7 -88.7 -3.492
03:36 1019 30.09 849 25.07 15.4 59.6 41 2.4 36.2 -88.7 -3.492
03:37 1019 30.09 849 25.07 15.9 60.6 40 2.3 36.1 -88.7 -3.492
03:38 1019 30.09 849 25.07 16.3 61.4 39 2.4 36.3 -88.7 -3.492
03:39 1019 30.09 849 25.07 16.3 61.3 40 2.7 36.8 -88.7 -3.492
03:40 1019 30.09 849 25.07 15.9 60.7 41 2.8 37 -88.7 -3.492
03:41 1019 30.09 849 25.07 15.6 60 42 2.9 37.3 -88.7 -3.492
03:42 1019 30.09 849 25.07 15 59 43 2.7 36.9 -88.7 -3.492
03:43 1019 30.09 849 25.07 14.7 58.4 44 2.8 37 -88.7 -3.492
03:44 1019 30.09 849 25.07 14.5 58 45 2.8 37.1 -88.7 -3.492
03:45 1019 30.09 849 25.07 14.1 57.4 47 2.9 37.3 -88.7 -3.492
03:46 1019 30.09 849 25.07 13.8 56.8 47 2.7 36.8 -88.7 -3.492
03:47 1019 30.09 849 25.07 14 57.2 46 2.5 36.5 -88.7 -3.492
03:48 1019 30.09 849 25.07 14.4 57.9 45 2.8 37 -88.7 -3.492
03:49 1019 30.09 849 25.07 14.5 58 44 2.6 36.7 -88.7 -3.492
03:50 1019 30.09 849 25.07 14.6 58.3 44 2.6 36.7 -88.7 -3.492
03:51 1019 30.09 849 25.07 14.7 58.5 44 2.8 37.1 -88.7 -3.492
03:52 1019 30.09 849 25.07 14.6 58.3 46 3.1 37.5 -88.7 -3.492
03:53 1019 30.09 849 25.07 14.3 57.7 46 2.9 37.2 -88.7 -3.492
03:54 1019 30.09 849 25.07 14.4 57.9 46 2.9 37.1 -88.7 -3.492
03:55 1019 30.09 849 25.07 14.6 58.2 45 2.9 37.3 -88.7 -3.492
03:56 1019 30.09 849 25.07 14.7 58.5 46 3.2 37.8 -88.7 -3.492
03:57 1019 30.09 849 25.07 14.7 58.5 45 3.1 37.6 -88.7 -3.492
03:58 1019 30.09 849 25.07 14.8 58.6 46 3.5 38.2 -88.7 -3.492
03:59 1019 30.09 849 25.07 14.4 57.9 46 3.1 37.5 -88.7 -3.492
04:00 1019 30.09 849 25.07 14.5 58 46 3.1 37.6 -88.7 -3.492
04:01 1019 30.09 849 25.07 14.5 58.2 47 3.3 38 -88.7 -3.492
04:02 1020 30.12 849 25.07 14.2 57.5 48 3.5 38.3 -88.7 -3.492
04:03 1020 30.12 849 25.07 13.1 55.6 52 3.7 38.6 -88.7 -3.492
04:04 1020 30.12 849 25.07 12.4 54.3 55 3.6 38.5 -88.7 -3.492
04:05 1020 30.12 849 25.07 11.7 53.1 57 3.6 38.5 -88.7 -3.492
04:06 1020 30.12 849 25.07 11.6 52.8 56 3.1 37.7 -88.7 -3.492
04:07 1020 30.12 849 25.07 12.2 53.9 54 3.3 38 -88.7 -3.492
04:08 1020 30.12 849 25.07 12.6 54.7 52 3.1 37.5 -88.7 -3.492
04:09 1020 30.12 849 25.07 13.2 55.8 52 3.6 38.4 -88.7 -3.492
04:10 1020 30.12 849 25.07 13.1 55.7 53 4 39.1 -88.7 -3.492
04:11 1020 30.12 849 25.07 12.7 54.9 54 3.8 38.8 -88.7 -3.492
04:12 1020 30.12 849 25.07 12.5 54.6 55 3.7 38.7 -88.7 -3.492
04:13 1020 30.12 849 25.07 12.5 54.6 55 3.9 39 -88.8 -3.496
04:14 1019 30.09 849 25.07 12.5 54.5 57 4.2 39.5 -88.8 -3.496
04:15 1020 30.12 849 25.07 12.2 54 58 4.3 39.8 -88.8 -3.496
04:16 1020 30.12 849 25.07 12 53.6 59 4.3 39.7 -88.8 -3.496
04:17 1019 30.09 849 25.07 11.9 53.4 58 3.8 38.9 -88.7 -3.492
04:18 1019 30.09 849 25.07 12.3 54.2 54 3.2 37.8 -88.8 -3.496
04:19 1019 30.09 849 25.07 13 55.5 54 3.9 39 -88.8 -3.496
04:20 1019 30.09 849 25.07 13.1 55.7 54 4.1 39.3 -88.8 -3.496
04:21 1019 30.09 849 25.07 13.2 55.8 53 4 39.3 -88.8 -3.496
04:22 1019 30.09 849 25.07 13.2 55.8 54 4.2 39.6 -88.8 -3.496
04:23 1019 30.09 849 25.07 12.9 55.2 55 4.2 39.5 -88.8 -3.496
04:24 1019 30.09 849 25.07 12.7 54.9 55 3.9 39 -88.8 -3.496
04:25 1019 30.09 849 25.07 13 55.3 53 3.6 38.5 -88.8 -3.496
04:26 1019 30.09 849 25.07 13.4 56 53 4 39.3 -88.8 -3.496
04:27 1019 30.09 849 25.07 13.1 55.6 54 4 39.2 -88.8 -3.496
04:28 1019 30.09 849 25.07 13.2 55.7 51 3.4 38.2 -88.8 -3.496
04:29 1019 30.09 849 25.07 13.5 56.3 52 4 39.2 -88.8 -3.496
04:30 1019 30.09 849 25.07 13.2 55.8 54 4.1 39.5 -88.8 -3.496
04:31 1019 30.09 849 25.07 13.1 55.5 52 3.4 38.1 -88.8 -3.496
04:32 1019 30.09 849 25.07 13.4 56.2 52 3.9 39 -88.8 -3.496
04:33 1020 30.12 849 25.07 13.4 56.1 53 4 39.1 -88.8 -3.496
04:34 1020 30.12 849 25.07 13.3 56 50 3.2 37.8 -88.8 -3.496
04:35 1020 30.12 849 25.07 13.8 56.8 48 3.1 37.5 -88.8 -3.496
04:36 1020 30.12 849 25.07 14.3 57.7 49 3.7 38.6 -88.8 -3.496
04:37 1020 30.12 849 25.07 14.2 57.5 49 3.8 38.8 -88.8 -3.496
04:38 1020 30.12 849 25.07 14 57.2 48 3.3 37.9 -88.8 -3.496
04:39 1020 30.12 849 25.07 14.3 57.7 46 3 37.5 -88.8 -3.496
04:40 1020 30.12 849 25.07 14.8 58.6 44 2.8 37 -88.8 -3.496
04:41 1019 30.09 849 25.07 15.4 59.6 45 3.6 38.4 -88.8 -3.496
04:42 1019 30.09 849 25.07 14.9 58.8 48 4.2 39.5 -88.9 -3.5
04:43 1019 30.09 849 25.07 13.5 56.3 53 4.3 39.7 -88.9 -3.5
04:44 1019 30.09 849 25.07 12.5 54.4 56 4.1 39.3 -88.9 -3.5
04:45 1019 30.09 849 25.07 12 53.5 58 4 39.2 -88.9 -3.5
04:46 1019 30.09 849 25.07 11.5 52.7 60 4 39.2 -88.9 -3.5
04:47 1019 30.09 849 25.07 11.4 52.5 56 3.1 37.6 -88.9 -3.5
04:48 1019 30.09 849 25.07 12.4 54.2 51 2.7 36.9 -88.9 -3.5
04:49 1019 30.09 849 25.07 13.3 55.9 49 2.9 37.2 -88.9 -3.5
04:50 1019 30.09 849 25.07 13.4 56 52 3.9 39 -88.9 -3.5
04:51 1019 30.09 849 25.07 12.4 54.3 57 4.1 39.3 -88.9 -3.5
04:52 1019 30.09 849 25.07 11.3 52.3 60 4 39.1 -88.9 -3.5
04:53 1019 30.09 849 25.07 10.7 51.2 61 3.6 38.5 -88.9 -3.5
04:54 1019 30.09 849 25.07 10.6 51.1 61 3.5 38.4 -88.9 -3.5
04:55 1019 30.09 849 25.07 10.7 51.2 61 3.6 38.5 -88.9 -3.5
04:56 1019 30.09 849 25.07 10.6 51 63 3.8 38.8 -88.9 -3.5
04:57 1019 30.09 849 25.07 10.4 50.7 63 3.6 38.6 -88.9 -3.5
04:58 1019 30.09 849 25.07 10.4 50.7 63 3.7 38.7 -88.9 -3.5
04:59 1019 30.09 849 25.07 10.3 50.6 62 3.3 38 -88.9 -3.5
05:00 1019 30.09 849 25.07 10.9 51.7 59 3.2 37.7 -88.9 -3.5
05:01 1019 30.09 849 25.07 11.3 52.4 59 3.6 38.4 -88.9 -3.5
05:02 1019 30.09 849 25.07 11.3 52.4 58 3.3 38 -88.9 -3.5
05:03 1019 30.09 849 25.07 11.5 52.7 57 3.2 37.8 -88.9 -3.5
05:04 1019 30.09 849 25.07 11.9 53.5 54 3 37.3 -88.9 -3.5
05:05 1019 30.09 849 25.07 12.2 54 55 3.6 38.4 -88.9 -3.5
05:06 1019 30.09 849 25.07 12 53.6 55 3.3 38 -89 -3.504
05:07 1019 30.09 849 25.07 12.1 53.8 55 3.5 38.4 -89 -3.504
05:08 1019 30.09 849 25.07 12 53.5 57 3.7 38.7 -89 -3.504
05:09 1019 30.09 849 25.07 11.6 52.9 58 3.6 38.5 -89 -3.504
05:10 1019 30.09 849 25.07 11.8 53.2 56 3.4 38.1 -89 -3.504
05:11 1019 30.09 849 25.07 12.1 53.8 56 3.6 38.4 -89 -3.504
05:12 1019 30.09 849 25.07 12.1 53.9 57 3.8 38.9 -89 -3.504
05:13 1019 30.09 849 25.07 12 53.5 57 3.8 38.8 -89 -3.504
05:14 1019 30.09 849 25.07 12 53.6 57 3.8 38.8 -89 -3.504
05:15 1019 30.09 849 25.07 12.2 53.9 56 3.7 38.7 -89 -3.504
05:16 1019 30.09 849 25.07 12.3 54.2 55 3.7 38.7 -89 -3.504
05:17 1019 30.09 849 25.07 12.4 54.3 54 3.5 38.3 -89 -3.504
05:18 1019 30.09 849 25.07 12.6 54.7 53 3.5 38.2 -89 -3.504
05:19 1019 30.09 849 25.07 12.9 55.2 52 3.5 38.2 -89 -3.504
05:20 1019 30.09 849 25.07 13.1 55.6 52 3.4 38.2 -89 -3.504
05:21 1019 30.09 849 25.07 13.3 55.9 52 3.6 38.6 -89 -3.504
05:22 1019 30.09 849 25.07 13.1 55.7 53 3.8 38.8 -89 -3.504
05:23 1019 30.09 849 25.07 12.9 55.2 54 3.8 38.8 -89 -3.504
05:24 1019 30.09 849 25.07 12.7 54.9 54 3.8 38.9 -89 -3.504
05:25 1019 30.09 849 25.07 12.6 54.7 55 3.9 39.1 -89 -3.504
05:26 1020 30.12 849 25.07 12.5 54.5 54 3.6 38.5 -89 -3.504
05:27 1020 30.12 849 25.07 12.7 54.9 54 3.6 38.4 -89 -3.504
05:28 1019 30.09 849 25.07 12.9 55.2 53 3.7 38.6 -89 -3.504
05:29 1019 30.09 849 25.07 12.9 55.3 52 3.4 38 -89.1 -3.508
05:30 1020 30.12 849 25.07 13.1 55.6 52 3.4 38.1 -89.1 -3.508
05:31 1020 30.12 849 25.07 13.1 55.6 51 3.4 38.1 -89.1 -3.508
05:32 1020 30.12 849 25.07 13.2 55.7 53 3.8 38.9 -89.1 -3.508
05:33 1020 30.12 849 25.07 12.9 55.2 53 3.7 38.7 -89 -3.504
05:34 1020 30.12 849 25.07 12.7 54.9 53 3.3 38 -89 -3.504
05:35 1020 30.12 849 25.07 13 55.3 50 3 37.4 -89 -3.504
05:36 1020 30.12 849 25.07 13.5 56.3 48 2.9 37.2 -89 -3.504
05:37 1020 30.12 849 25.07 14 57.2 47 2.9 37.2 -89 -3.504
05:38 1020 30.12 849 25.07 14.4 57.9 45 2.8 37.1 -89 -3.504
05:39 1020 30.12 849 25.07 14.7 58.5 45 3 37.4 -89.1 -3.508
05:40 1020 30.12 849 25.07 15 58.9 45 3.2 37.7 -89.1 -3.508
05:41 1020 30.12 849 25.07 14.9 58.9 45 3.1 37.6 -89.1 -3.508
05:42 1020 30.12 849 25.07 14.9 58.8 45 3.1 37.5 -89.1 -3.508
05:43 1019 30.09 849 25.07 14.7 58.5 46 3.3 37.9 -89.1 -3.508
05:44 1019 30.09 849 25.07 14.4 58 47 3.4 38.1 -89.1 -3.508
05:45 1019 30.09 849 25.07 14.3 57.7 47 3.1 37.7 -89.1 -3.508
05:46 1019 30.09 849 25.07 14.4 58 46 3 37.4 -89.1 -3.508
05:47 1019 30.09 849 25.07 14.8 58.6 45 3.2 37.8 -89.1 -3.508
05:48 1020 30.12 849 25.07 14.8 58.6 48 3.9 39 -89 -3.504
05:49 1020 30.12 849 25.07 14.2 57.5 50 4.1 39.4 -89 -3.504
05:50 1020 30.12 849 25.07 13.6 56.5 49 3.2 37.8 -89 -3.504
05:51 1020 30.12 849 25.07 13.7 56.7 48 2.8 37.1 -89 -3.504
05:52 1019 30.09 849 25.07 14 57.2 48 3.2 37.7 -89 -3.504
05:53 1020 30.12 849 25.07 14.2 57.6 48 3.4 38.1 -89 -3.504
05:54 1020 30.12 849 25.07 14.4 57.9 46 2.9 37.2 -89 -3.504
05:55 1020 30.12 849 25.07 14.5 58.2 45 2.8 37 -89 -3.504
05:56 1019 30.09 849 25.07 15.1 59.2 42 2.5 36.6 -89 -3.504
05:57 1019 30.09 849 25.07 16.2 61.1 41 3 37.4 -89 -3.504
05:58 1019 30.09 849 25.07 16.6 61.9 39 2.6 36.6 -89 -3.504
05:59 1019 30.09 849 25.07 16.9 62.4 38 2.8 37 -89 -3.504
06:00 1019 30.09 849 25.07 17.1 62.8 39 3.3 38 -89 -3.504
06:01 1020 30.12 849 25.07 17 62.5 41 3.9 39 -89 -3.504
06:02 1020 30.12 849 25.07 16.2 61.2 44 4.2 39.5 -89 -3.504
06:03 1020 30.12 849 25.07 15.5 59.8 46 4 39.2 -89 -3.504
06:04 1020 30.12 849 25.07 15.1 59.2 46 3.6 38.6 -89 -3.504
06:05 1020 30.12 849 25.07 15.1 59.2 43 2.9 37.2 -89 -3.504
06:06 1019 30.09 849 25.07 15.3 59.6 45 3.4 38.2 -89 -3.504
06:07 1020 30.12 849 25.07 15.4 59.7 43 3 37.5 -89 -3.504
06:08 1020 30.12 849 25.07 15.3 59.6 43 2.9 37.2 -88.9 -3.5
06:09 1019 30.09 849 25.07 15.6 60 42 2.9 37.2 -89 -3.504
06:10 1019 30.09 849 25.07 15.9 60.7 43 3.6 38.4 -88.9 -3.5
06:11 1019 30.09 849 25.07 15.8 60.4 43 3.4 38.2 -88.9 -3.5
06:12 1019 30.09 849 25.07 15.7 60.3 44 3.6 38.4 -88.9 -3.5
06:13 1019 30.09 849 25.07 15.8 60.4 44 3.5 38.4 -88.9 -3.5
06:14 1019 30.09 849 25.07 15.7 60.3 44 3.5 38.2 -88.9 -3.5
06:15 1019 30.09 849 25.07 15.7 60.2 43 3.2 37.7 -88.9 -3.5
06:16 1020 30.12 849 25.07 15.9 60.7 41 2.7 36.8 -88.9 -3.5
06:17 1020 30.12 849 25.07 16.4 61.5 39 2.7 36.8 -88.9 -3.5
06:18 1020 30.12 849 25.07 16.6 61.9 41 3.5 38.3 -88.9 -3.5
06:19 1019 30.09 849 25.07 16.4 61.5 43 3.8 38.9 -88.9 -3.5
06:20 1020 30.12 849 25.07 16 60.8 43 3.7 38.6 -88.9 -3.5
06:21 1020 30.12 849 25.07 15.6 60.2 44 3.6 38.5 -88.9 -3.5
06:22 1020 30.12 849 25.07 15.6 60 43 3 37.4 -88.9 -3.5
06:23 1019 30.09 849 25.07 15.6 60.1 44 3.5 38.3 -88.9 -3.5
06:24 1020 30.12 849 25.07 15.6 60 43 3.2 37.8 -88.9 -3.5
06:25 1020 30.12 849 25.07 15.6 60 43 3.2 37.7 -88.9 -3.5
06:26 1020 30.12 849 25.07 15.5 60 44 3.3 38 -88.9 -3.5
06:27 1020 30.12 849 25.07 15.2 59.4 45 3.5 38.3 -88.9 -3.5
06:28 1020 30.12 849 25.07 14.9 58.8 46 3.5 38.3 -88.9 -3.5
06:29 1020 30.12 849 25.07 14.5 58.2 48 3.8 38.8 -88.9 -3.5
06:30 1020 30.12 849 25.07 13.9 57.1 50 3.7 38.7 -88.8 -3.496
06:31 1020 30.12 849 25.07 13.5 56.4 51 3.6 38.5 -88.8 -3.496
06:32 1020 30.12 849 25.07 13.4 56.1 51 3.4 38.2 -88.9 -3.5
06:33 1020 30.12 849 25.07 13.5 56.4 50 3.3 38 -88.8 -3.496
06:34 1020 30.12 849 25.07 13.8 56.9 49 3.3 37.9 -88.9 -3.5
06:35 1020 30.12 849 25.07 14 57.2 49 3.5 38.3 -88.9 -3.5
06:36 1020 30.12 849 25.07 13.6 56.5 50 3.5 38.4 -88.8 -3.496
06:37 1020 30.12 849 25.07 13.1 55.6 51 3.3 37.9 -88.8 -3.496
06:38 1020 30.12 849 25.07 13.2 55.8 51 3.3 38 -88.8 -3.496
06:39 1020 30.12 849 25.07 13.2 55.8 51 3.3 38 -88.8 -3.496
06:40 1020 30.12 849 25.07 13 55.5 52 3.5 38.3 -88.8 -3.496
06:41 1020 30.12 849 25.07 12.6 54.7 54 3.6 38.4 -88.8 -3.496
06:42 1020 30.12 849 25.07 12.2 53.9 55 3.5 38.3 -88.8 -3.496
06:43 1020 30.12 849 25.07 12 53.6 56 3.5 38.3 -88.8 -3.496
06:44 1020 30.12 849 25.07 12.1 53.8 54 3.2 37.8 -88.9 -3.5
06:45 1020 30.12 849 25.07 12.5 54.5 53 3.3 37.9 -88.9 -3.5
06:46 1020 30.12 849 25.07 12.8 55 52 3.2 37.8 -88.9 -3.5
06:47 1020 30.12 849 25.07 12.9 55.1 52 3.4 38.1 -88.9 -3.5
06:48 1020 30.12 849 25.07 12.7 54.9 53 3.5 38.4 -88.9 -3.5
06:49 1020 30.12 849 25.07 12.4 54.4 55 3.6 38.5 -88.9 -3.5
06:50 1020 30.12 849 25.07 12.2 53.9 56 3.8 38.9 -88.9 -3.5
06:51 1020 30.12 849 25.07 11.7 53.1 58 3.8 38.8 -88.9 -3.5
06:52 1020 30.12 849 25.07 11.5 52.6 59 3.8 38.9 -88.9 -3.5
06:53 1020 30.12 849 25.07 11.3 52.3 60 3.8 38.9 -88.9 -3.5
06:54 1020 30.12 849 25.07 11.2 52.1 59 3.6 38.5 -88.9 -3.5
06:55 1020 30.12 849 25.07 11.4 52.4 58 3.6 38.4 -88.9 -3.5
06:56 1020 30.12 849 25.07 11.5 52.8 58 3.6 38.4 -88.9 -3.5
06:57 1020 30.12 849 25.07 11.7 53 57 3.4 38.2 -88.9 -3.5
06:58 1020 30.12 849 25.07 11.8 53.2 57 3.5 38.3 -88.9 -3.5
06:59 1020 30.12 849 25.07 11.9 53.5 56 3.5 38.4 -88.9 -3.5
07:00 1020 30.12 849 25.07 12 53.5 57 3.7 38.7 -88.9 -3.5
07:01 1020 30.12 849 25.07 11.9 53.4 57 3.8 38.8 -88.9 -3.5
07:02 1020 30.12 849 25.07 11.7 53 57 3.6 38.4 -88.9 -3.5
07:03 1020 30.12 849 25.07 11.6 52.9 58 3.6 38.4 -88.9 -3.5
07:04 1020 30.12 849 25.07 11.6 52.9 58 3.6 38.4 -88.9 -3.5
07:05 1020 30.12 849 25.07 11.7 53 57 3.6 38.4 -88.9 -3.5
07:06 1020 30.12 849 25.07 11.7 53.1 57 3.6 38.5 -88.9 -3.5
07:07 1020 30.12 849 25.07 11.8 53.2 58 3.8 38.8 -89 -3.504
07:08 1020 30.12 849 25.07 11.7 53 58 3.7 38.6 -89 -3.504
07:09 1020 30.12 849 25.07 11.7 53 57 3.5 38.3 -89 -3.504
07:10 1020 30.12 849 25.07 11.8 53.3 56 3.4 38.1 -89 -3.504
07:11 1020 30.12 849 25.07 12 53.6 55 3.3 38 -89 -3.504
07:12 1020 30.12 849 25.07 12.2 54 54 3.3 37.9 -89 -3.504
07:13 1020 30.12 849 25.07 12.3 54.2 54 3.3 37.9 -89 -3.504
07:14 1020 30.12 849 25.07 12.3 54.2 54 3.4 38.1 -89 -3.504
07:15 1020 30.12 849 25.07 12.2 54 54 3.3 37.9 -89 -3.504
07:16 1020 30.12 849 25.07 12.4 54.3 54 3.3 37.9 -89 -3.504
07:17 1020 30.12 849 25.07 12.6 54.7 53 3.2 37.8 -89 -3.504
07:18 1020 30.12 849 25.07 12.9 55.3 51 3.1 37.5 -89 -3.504
07:19 1020 30.12 849 25.07 13.2 55.8 50 3.2 37.7 -89 -3.504
07:20 1020 30.12 849 25.07 13.3 56 50 3.2 37.7 -89 -3.504
07:21 1020 30.12 849 25.07 13.4 56.1 50 3.3 37.9 -89 -3.504
07:22 1020 30.12 849 25.07 13.4 56.2 50 3.3 37.9 -89.1 -3.508
07:23 1020 30.12 849 25.07 13.4 56.2 50 3.2 37.8 -89.1 -3.508
07:24 1020 30.12 849 25.07 13.6 56.4 49 3.2 37.8 -89.1 -3.508
07:25 1020 30.12 849 25.07 13.6 56.4 51 3.7 38.7 -89.1 -3.508
07:26 1020 30.12 849 25.07 13.2 55.7 50 3.2 37.8 -89.1 -3.508
07:27 1020 30.12 849 25.07 13.3 56 49 2.8 37.1 -89.1 -3.508
07:28 1020 30.12 849 25.07 13.8 56.8 47 2.7 36.8 -89.1 -3.508
07:29 1020 30.12 849 25.07 14.2 57.5 46 2.9 37.1 -89.1 -3.508
07:30 1020 30.12 849 25.07 14 57.1 49 3.4 38.1 -89.1 -3.508
07:31 1020 30.12 849 25.07 13.5 56.3 50 3.3 37.9 -89.1 -3.508
07:32 1020 30.12 849 25.07 13.3 55.9 50 3.1 37.5 -89.1 -3.508
07:33 1020 30.12 849 25.07 13.4 56.1 50 3.2 37.8 -89.1 -3.508
07:34 1020 30.12 849 25.07 13.4 56 50 3.2 37.7 -89.1 -3.508
07:35 1020 30.12 849 25.07 13.4 56.1 50 3.2 37.8 -89.1 -3.508
07:36 1020 30.12 849 25.07 13.3 55.9 50 3.1 37.6 -89.1 -3.508
07:37 1020 30.12 849 25.07 13.2 55.8 49 3 37.3 -89.1 -3.508
07:38 1020 30.12 849 25.07 13.3 56 50 3.1 37.6 -89.1 -3.508
07:39 1020 30.12 849 25.07 13.2 55.7 51 3.3 37.9 -89.1 -3.508
07:40 1020 30.12 849 25.07 12.9 55.1 52 3.4 38 -89.1 -3.508
07:41 1020 30.12 849 25.07 12.4 54.4 54 3.4 38.2 -89.1 -3.508
07:42 1020 30.12 849 25.07 12.1 53.7 55 3.5 38.2 -89.1 -3.508
07:43 1020 30.12 849 25.07 11.8 53.2 57 3.6 38.5 -89.1 -3.508
07:44 1020 30.12 849 25.07 11.4 52.6 59 3.7 38.6 -89.1 -3.508
07:45 1020 30.12 849 25.07 11.2 52.1 60 3.8 38.8 -89.1 -3.508
07:46 1020 30.12 849 25.07 10.9 51.7 61 3.7 38.6 -89.1 -3.508
07:47 1020 30.12 849 25.07 11 51.7 60 3.6 38.4 -89.1 -3.508
07:48 1020 30.12 849 25.07 11.2 52.1 59 3.5 38.3 -89.1 -3.508
07:49 1020 30.12 849 25.07 11.4 52.6 58 3.4 38.1 -89.1 -3.508
07:50 1020 30.12 849 25.07 11.8 53.3 56 3.4 38.1 -89.1 -3.508
07:51 1020 30.12 849 25.07 12.1 53.7 56 3.7 38.6 -89.1 -3.508
07:52 1020 30.12 849 25.07 12.3 54.1 56 3.8 38.8 -89.1 -3.508
07:53 1020 30.12 849 25.07 12.4 54.3 56 4 39.2 -89.1 -3.508
07:54 1020 30.12 849 25.07 12.4 54.4 57 4.1 39.4 -89.1 -3.508
07:55 1020 30.12 849 25.07 12.5 54.4 57 4.2 39.5 -89.1 -3.508
07:56 1020 30.12 849 25.07 12.5 54.5 56 4.1 39.4 -89.1 -3.508
07:57 1020 30.12 849 25.07 12.6 54.7 55 3.8 38.8 -89.1 -3.508
07:58 1020 30.12 849 25.07 12.9 55.2 52 3.3 38 -89.1 -3.508
07:59 1020 30.12 849 25.07 13.2 55.8 52 3.6 38.4 -89.1 -3.508
08:00 1020 30.12 849 25.07 13.5 56.3 51 3.7 38.6 -89.1 -3.508
08:01 1020 30.12 849 25.07 13.6 56.5 52 4 39.2 -89.1 -3.508
08:02 1020 30.12 849 25.07 13.7 56.6 53 4.3 39.8 -89.1 -3.508
08:03 1020 30.12 849 25.07 13.5 56.4 55 4.7 40.5 -89.1 -3.508
08:04 1020 30.12 849 25.07 13.4 56 56 4.7 40.5 -89.1 -3.508
08:05 1020 30.12 849 25.07 13.3 55.9 56 4.7 40.5 -89.1 -3.508
08:06 1020 30.12 849 25.07 13.3 55.9 54 4.3 39.8 -89.1 -3.508
08:07 1020 30.12 849 25.07 13.4 56.2 54 4.3 39.7 -89.1 -3.508
08:08 1020 30.12 849 25.07 13.7 56.7 52 4.1 39.4 -89.1 -3.508
08:09 1020 30.12 849 25.07 13.9 57 51 4 39.1 -89.1 -3.508
08:10 1020 30.12 849 25.07 14.1 57.3 50 3.9 39.1 -89.1 -3.508
08:11 1020 30.12 849 25.07 14.3 57.7 51 4.2 39.6 -89.1 -3.508
08:12 1020 30.12 849 25.07 14.3 57.7 51 4.4 40 -89.1 -3.508
08:13 1020 30.12 849 25.07 14.2 57.6 51 4.3 39.7 -89.1 -3.508
08:14 1020 30.12 849 25.07 14.2 57.6 50 4.1 39.4 -89.1 -3.508
08:15 1020 30.12 849 25.07 14.3 57.8 48 3.5 38.2 -89.1 -3.508
08:16 1020 30.12 849 25.07 14.5 58.1 48 3.7 38.7 -89.1 -3.508
08:17 1020 30.12 849 25.07 14.6 58.2 47 3.5 38.3 -89.1 -3.508
08:18 1020 30.12 849 25.07 14.8 58.6 47 3.7 38.6 -89.1 -3.508
08:19 1020 30.12 849 25.07 14.9 58.8 48 3.9 39.1 -89.1 -3.508
08:20 1020 30.12 849 25.07 14.9 58.7 48 3.9 39.1 -89.1 -3.508
08:21 1020 30.12 849 25.07 14.8 58.7 46 3.4 38.1 -89 -3.504
08:22 1020 30.12 849 25.07 14.9 58.8 45 3.2 37.8 -89 -3.504
08:23 1020 30.12 849 25.07 15 59.1 46 3.7 38.7 -89.1 -3.508
08:24 1020 30.12 849 25.07 15.1 59.2 47 3.9 39 -89.1 -3.508
08:25 1020 30.12 849 25.07 15.1 59.2 48 4.2 39.5 -89 -3.504
08:26 1020 30.12 849 25.07 15 59 48 4.3 39.7 -89 -3.504
08:27 1020 30.12 849 25.07 14.8 58.7 49 4.3 39.7 -89 -3.504
08:28 1020 30.12 849 25.07 14.9 58.7 47 3.7 38.7 -89 -3.504
08:29 1020 30.12 849 25.07 15 59 48 4.2 39.5 -89 -3.504
08:30 1020 30.12 849 25.07 15.3 59.5 43 2.9 37.1 -89 -3.504
08:31 1020 30.12 849 25.07 15.6 60.1 44 3.5 38.4 -89 -3.504
08:32 1020 30.12 849 25.07 15.7 60.3 44 3.5 38.3 -89 -3.504
08:33 1020 30.12 849 25.07 15.7 60.3 46 4.1 39.4 -89 -3.504
08:34 1020 30.12 849 25.07 15.6 60.1 45 3.9 39 -89 -3.504
08:35 1020 30.12 849 25.07 15.6 60.2 46 4.1 39.4 -88.9 -3.5
08:36 1020 30.12 849 25.07 15.5 60 48 4.6 40.4 -88.9 -3.5
08:37 1020 30.12 849 25.07 15.5 59.9 48 4.5 40.1 -88.9 -3.5
08:38 1020 30.12 849 25.07 15.3 59.6 48 4.5 40.1 -88.9 -3.5
08:39 1020 30.12 849 25.07 15.3 59.6 49 4.6 40.3 -88.9 -3.5
08:40 1020 30.12 849 25.07 15.3 59.5 49 4.7 40.4 -88.9 -3.5
08:41 1020 30.12 849 25.07 15.3 59.5 49 4.6 40.4 -88.9 -3.5
08:42 1020 30.12 849 25.07 15.3 59.5 49 4.7 40.4 -88.9 -3.5
08:43 1020 30.12 849 25.07 15.3 59.5 47 4 39.2 -88.8 -3.496
08:44 1020 30.12 849 25.07 15.4 59.6 46 3.8 38.8 -88.8 -3.496
08:45 1020 30.12 849 25.07 15.5 60 46 4 39.1 -88.8 -3.496
08:46 1020 30.12 849 25.07 15.6 60.1 46 4.1 39.4 -88.8 -3.496
08:47 1020 30.12 849 25.07 15.6 60.1 45 4 39.2 -88.8 -3.496
08:48 1020 30.12 849 25.07 15.7 60.3 45 4 39.3 -88.8 -3.496
08:49 1020 30.12 849 25.07 15.8 60.4 47 4.5 40.2 -88.8 -3.496
08:50 1020 30.12 849 25.07 15.7 60.3 47 4.6 40.3 -88.8 -3.496
08:51 1020 30.12 849 25.07 15.7 60.2 47 4.6 40.2 -88.8 -3.496
08:52 1020 30.12 849 25.07 15.7 60.3 48 4.9 40.9 -88.8 -3.496
08:53 1020 30.12 849 25.07 15.6 60.1 48 4.6 40.3 -88.8 -3.496
08:54 1020 30.12 849 25.07 15.6 60 49 5 41.1 -88.8 -3.496
08:55 1020 30.12 849 25.07 15.5 60 46 4.1 39.4 -88.8 -3.496
08:56 1020 30.12 849 25.07 15.6 60.1 48 4.6 40.3 -88.8 -3.496
08:57 1020 30.12 849 25.07 15.6 60.1 50 5.4 41.7 -88.8 -3.496
08:58 1020 30.12 849 25.07 15.6 60.1 48 4.8 40.7 -88.8 -3.496
08:59 1020 30.12 849 25.07 15.6 60.1 49 5 41 -88.8 -3.496
09:00 1020 30.12 849 25.07 15.7 60.2 50 5.4 41.7 -88.7 -3.492
09:01 1020 30.12 849 25.07 15.7 60.2 53 6.2 43.1 -88.7 -3.492
09:02 1020 30.12 849 25.07 15.7 60.3 53 6.2 43.1 -88.7 -3.492
09:03 1020 30.12 849 25.07 15.7 60.3 51 5.6 42 -88.7 -3.492
09:04 1020 30.12 849 25.07 15.7 60.2 54 6.4 43.6 -88.7 -3.492
09:05 1020 30.12 849 25.07 15.6 60.1 53 6.2 43.1 -88.7 -3.492
09:06 1020 30.12 849 25.07 15.6 60.1 51 5.6 42.2 -88.7 -3.492
09:07 1020 30.12 849 25.07 15.7 60.2 51 5.6 42 -88.6 -3.488
09:08 1020 30.12 849 25.07 15.7 60.3 49 5.3 41.5 -88.6 -3.488
09:09 1020 30.12 849 25.07 15.8 60.5 49 5.3 41.5 -88.6 -3.488
09:10 1020 30.12 849 25.07 15.9 60.6 50 5.5 41.9 -88.6 -3.488
09:11 1020 30.12 849 25.07 16 60.8 50 5.7 42.2 -88.6 -3.488
09:12 1020 30.12 849 25.07 16.1 60.9 52 6.2 43.2 -88.6 -3.488
09:13 1020 30.12 849 25.07 16.1 61 48 5.3 41.5 -88.6 -3.488
09:14 1020 30.12 849 25.07 16.2 61.1 51 6.1 43 -88.6 -3.488
09:15 1020 30.12 849 25.07 16.3 61.3 48 5.5 41.8 -88.6 -3.488
09:16 1020 30.12 849 25.07 16.4 61.4 46 4.8 40.6 -88.6 -3.488
09:17 1020 30.12 849 25.07 16.5 61.6 50 6.2 43.1 -88.6 -3.488
09:18 1020 30.12 849 25.07 16.5 61.7 46 5.1 41.2 -88.5 -3.484
09:19 1020 30.12 849 25.07 16.6 61.9 50 6.2 43.2 -88.6 -3.488
09:20 1020 30.12 849 25.07 16.7 62.1 51 6.6 43.9 -88.6 -3.488
09:21 1020 30.12 849 25.07 16.7 62.1 49 6 42.9 -88.5 -3.484
09:22 1020 30.12 849 25.07 16.9 62.3 53 7.4 45.4 -88.5 -3.484
09:23 1020 30.12 849 25.07 16.9 62.5 51 6.9 44.4 -88.5 -3.484
09:24 1020 30.12 849 25.07 16.9 62.5 47 5.7 42.3 -88.5 -3.484
09:25 1020 30.12 849 25.07 17 62.6 44 4.7 40.4 -88.5 -3.484
09:26 1020 30.12 849 25.07 17 62.7 43 4.6 40.3 -88.5 -3.484
09:27 1020 30.12 849 25.07 17.1 62.7 49 6.4 43.6 -88.5 -3.484
09:28 1020 30.12 849 25.07 17 62.6 47 5.9 42.5 -88.5 -3.484
09:29 1020 30.12 849 25.07 17 62.7 44 4.9 40.7 -88.5 -3.484
09:30 1020 30.12 849 25.07 17.1 62.8 44 4.7 40.5 -88.5 -3.484
09:31 1020 30.12 849 25.07 17.2 62.9 45 5.4 41.7 -88.4 -3.48
09:32 1020 30.12 849 25.07 17.2 63 49 6.5 43.6 -88.4 -3.48
09:33 1020 30.12 849 25.07 17.2 63 52 7.4 45.4 -88.4 -3.48
09:34 1020 30.12 849 25.07 17.2 62.9 54 8 46.3 -88.4 -3.48
09:35 1020 30.12 849 25.07 17 62.6 54 7.7 45.8 -88.4 -3.48
09:36 1020 30.12 849 25.07 16.9 62.5 55 7.9 46.2 -88.4 -3.48
09:37 1020 30.12 849 25.07 16.9 62.3 53 7.4 45.3 -88.4 -3.48
09:38 1020 30.12 849 25.07 16.9 62.4 51 6.7 44.1 -88.4 -3.48
09:39 1020 30.12 849 25.07 16.9 62.5 48 6 42.9 -88.4 -3.48
09:40 1020 30.12 849 25.07 17.2 62.9 51 6.9 44.5 -88.3 -3.476
09:41 1020 30.12 849 25.07 17.3 63.1 45 5.5 41.9 -88.3 -3.476
09:42 1020 30.12 849 25.07 17.5 63.5 47 6.3 43.4 -88.3 -3.476
09:43 1020 30.12 849 25.07 17.7 63.9 43 5.2 41.3 -88.3 -3.476
09:44 1020 30.12 849 25.07 17.9 64.2 43 5.1 41.2 -88.3 -3.476
09:45 1020 30.12 849 25.07 18.1 64.5 41 4.6 40.2 -88.3 -3.476
09:46 1020 30.12 849 25.07 18.2 64.8 41 5 41.1 -88.3 -3.476
09:47 1020 30.12 849 25.07 18.4 65.1 42 5.4 41.8 -88.3 -3.476
09:48 1020 30.12 849 25.07 18.6 65.4 36 3.4 38.2 -88.3 -3.476
09:49 1020 30.12 849 25.07 18.8 65.8 36 3.5 38.4 -88.2 -3.472
09:50 1020 30.12 849 25.07 19 66.1 37 4 39.1 -88.2 -3.472
09:51 1020 30.12 849 25.07 19.1 66.4 39 4.9 40.9 -88.2 -3.472
09:52 1020 30.12 849 25.07 19.2 66.6 40 5.3 41.6 -88.2 -3.472
09:53 1020 30.12 849 25.07 19.3 66.8 36 4 39.2 -88.2 -3.472
09:54 1020 30.12 849 25.07 19.4 66.9 34 3.5 38.2 -88.2 -3.472
09:55 1020 30.12 849 25.07 19.5 67.2 37 4.7 40.4 -88.2 -3.472
09:56 1020 30.12 849 25.07 19.6 67.3 33 3.2 37.8 -88.1 -3.469
09:57 1020 30.12 849 25.07 19.8 67.6 38 5.1 41.1 -88.1 -3.469
09:58 1020 30.12 849 25.07 19.8 67.6 37 5 41 -88.1 -3.469
09:59 1020 30.12 849 25.07 19.8 67.7 36 4.4 39.9 -88.1 -3.469
10:00 1020 30.12 849 25.07 19.8 67.6 41 6.2 43.2 -88.1 -3.469
10:01 1020 30.12 849 25.07 19.7 67.5 36 4.2 39.6 -88 -3.465
10:02 1020 30.12 849 25.07 19.7 67.5 33 3 37.4 -88 -3.465
10:03 1020 30.12 849 25.07 19.7 67.4 34 3.6 38.5 -88 -3.465
10:04 1020 30.12 849 25.07 19.7 67.5 33 3.1 37.6 -88 -3.465
10:05 1020 30.12 849 25.07 19.7 67.5 37 4.9 40.7 -88 -3.465
10:06 1020 30.12 849 25.07 19.7 67.5 41 6.1 42.9 -88 -3.465
10:07 1020 30.12 849 25.07 19.7 67.4 41 6.3 43.3 -88 -3.465
10:08 1020 30.12 849 25.07 19.7 67.4 38 5 40.9 -88 -3.465
10:09 1020 30.12 849 25.07 19.7 67.5 38 5.1 41.1 -87.9 -3.461
10:10 1020 30.12 849 25.07 19.7 67.5 40 6 42.9 -87.9 -3.461
10:11 1020 30.12 849 25.07 19.8 67.6 39 5.6 42.1 -87.9 -3.461
10:12 1020 30.12 849 25.07 19.9 67.7 39 5.7 42.2 -87.9 -3.461
10:13 1020 30.12 849 25.07 19.9 67.8 39 5.5 41.9 -87.9 -3.461
10:14 1020 30.12 849 25.07 19.9 67.9 43 7.2 45 -87.9 -3.461
10:15 1020 30.12 849 25.07 19.9 67.8 42 6.8 44.2 -87.8 -3.457
10:16 1020 30.12 849 25.07 19.9 67.9 45 7.8 46.1 -87.8 -3.457
10:17 1020 30.12 849 25.07 19.8 67.6 43 7 44.6 -87.8 -3.457
10:18 1020 30.12 849 25.07 19.7 67.5 40 6 42.9 -87.8 -3.457
10:19 1020 30.12 849 25.07 19.7 67.5 38 5.3 41.6 -87.8 -3.457
10:20 1020 30.12 849 25.07 19.8 67.6 36 4.4 40 -87.8 -3.457
10:21 1020 30.12 849 25.07 19.8 67.6 36 4.4 39.9 -87.7 -3.453
10:22 1020 30.12 849 25.07 19.9 67.7 39 5.8 42.5 -87.7 -3.453
10:23 1020 30.12 849 25.07 19.9 67.8 43 7 44.6 -87.7 -3.453
10:24 1020 30.12 849 25.07 19.8 67.6 43 7 44.6 -87.7 -3.453
10:25 1020 30.12 849 25.07 19.8 67.6 39 5.7 42.3 -87.7 -3.453
10:26 1020 30.12 849 25.07 19.8 67.6 42 6.7 44.1 -87.7 -3.453
10:27 1020 30.12 849 25.07 19.8 67.6 43 6.9 44.5 -87.6 -3.449
10:28 1020 30.12 849 25.07 19.8 67.6 45 7.5 45.6 -87.6 -3.449
10:29 1020 30.12 849 25.07 19.8 67.7 45 7.8 46.1 -87.6 -3.449
10:30 1020 30.12 849 25.07 19.9 67.8 43 7 44.6 -87.6 -3.449
10:31 1020 30.12 849 25.07 19.9 67.9 40 6.2 43.1 -87.6 -3.449
10:32 1020 30.12 849 25.07 20 68 38 5.4 41.7 -87.5 -3.445
10:33 1020 30.12 849 25.07 20 68.1 38 5.5 41.9 -87.5 -3.445
10:34 1020 30.12 849 25.07 20.1 68.2 40 6.1 43 -87.5 -3.445
10:35 1020 30.12 849 25.07 20.2 68.3 37 5.2 41.3 -87.5 -3.445
10:36 1020 30.12 849 25.07 20.2 68.4 38 5.8 42.4 -87.5 -3.445
10:37 1020 30.12 849 25.07 20.3 68.5 37 5.2 41.3 -87.5 -3.445
10:38 1020 30.12 849 25.07 20.3 68.5 39 6.2 43.1 -87.5 -3.445
10:39 1020 30.12 849 25.07 20.3 68.5 39 6 42.9 -87.5 -3.445
10:40 1020 30.12 849 25.07 20.2 68.3 37 5.2 41.4 -87.5 -3.445
10:41 1020 30.12 850 25.1 20.1 68.1 36 4.9 40.8 -87.5 -3.445
10:42 1020 30.12 850 25.1 20 68 36 4.8 40.7 -87.4 -3.441
10:43 1020 30.12 850 25.1 20 68 39 5.7 42.3 -87.4 -3.441
10:44 1020 30.12 850 25.1 20 67.9 40 6.1 43 -87.4 -3.441
10:45 1020 30.12 850 25.1 19.9 67.9 40 6.2 43.1 -87.4 -3.441
10:46 1020 30.12 850 25.1 19.8 67.7 40 5.8 42.5 -87.4 -3.441
10:47 1020 30.12 850 25.1 19.8 67.7 40 6 42.7 -87.3 -3.437
10:48 1020 30.12 850 25.1 19.9 67.8 37 5.1 41.2 -87.3 -3.437
10:49 1020 30.12 850 25.1 19.9 67.9 40 6.1 42.9 -87.3 -3.437
10:50 1020 30.12 850 25.1 19.9 67.8 38 5.4 41.6 -87.3 -3.437
10:51 1020 30.12 850 25.1 20 68 34 3.8 38.9 -87.3 -3.437
10:52 1020 30.12 850 25.1 20.2 68.3 36 4.7 40.5 -87.3 -3.437
10:53 1020 30.12 850 25.1 20.2 68.4 35 4.6 40.4 -87.3 -3.437
10:54 1020 30.12 850 25.1 20.2 68.4 38 5.6 42 -87.3 -3.437
10:55 1020 30.12 850 25.1 20.2 68.4 34 4.1 39.4 -87.2 -3.433
10:56 1020 30.12 850 25.1 20.2 68.4 31 2.7 36.9 -87.2 -3.433
10:57 1021 30.15 850 25.1 20.4 68.8 34 4.3 39.8 -87.2 -3.433
10:58 1021 30.15 850 25.1 20.5 68.9 34 4.5 40 -87.2 -3.433
10:59 1021 30.15 850 25.1 20.5 68.8 33 3.9 39 -87.2 -3.433
11:00 1021 30.15 850 25.1 20.5 68.9 32 3.4 38.2 -87.2 -3.433
11:01 1021 30.15 850 25.1 20.6 69.1 34 4.3 39.7 -87.2 -3.433
11:02 1021 30.15 850 25.1 20.7 69.2 34 4.4 39.8 -87.2 -3.433
11:03 1021 30.15 850 25.1 20.7 69.2 36 5.4 41.7 -87.1 -3.429
11:04 1021 30.15 850 25.1 20.7 69.2 37 5.5 42 -87.1 -3.429
11:05 1021 30.15 850 25.1 20.7 69.2 38 6.1 43 -87.1 -3.429
11:06 1021 30.15 850 25.1 20.6 69.2 35 4.9 40.8 -87.1 -3.429
11:07 1021 30.15 850 25.1 20.6 69.1 35 4.8 40.6 -87.1 -3.429
11:08 1021 30.15 850 25.1 20.7 69.2 34 4.3 39.8 -87.1 -3.429
11:09 1021 30.15 850 25.1 20.7 69.3 32 3.6 38.4 -87.1 -3.429
11:10 1021 30.15 850 25.1 20.8 69.4 33 4.1 39.3 -87 -3.425
11:11 1021 30.15 850 25.1 20.8 69.4 33 4 39.2 -87 -3.425
11:12 1021 30.15 850 25.1 20.9 69.5 33 4 39.3 -87 -3.425
11:13 1021 30.15 850 25.1 20.9 69.6 33 4.3 39.7 -87 -3.425
11:14 1021 30.15 850 25.1 20.9 69.6 36 5.3 41.6 -87 -3.425
11:15 1021 30.15 850 25.1 20.8 69.4 36 5.2 41.4 -87 -3.425
11:16 1021 30.15 850 25.1 20.7 69.3 36 5.2 41.4 -86.9 -3.421
11:17 1021 30.15 850 25.1 20.7 69.3 32 3.7 38.6 -86.9 -3.421
11:18 1020 30.12 850 25.1 20.7 69.2 32 3.5 38.4 -86.9 -3.421
11:19 1020 30.12 850 25.1 20.7 69.2 32 3.7 38.7 -86.9 -3.421
11:20 1020 30.12 850 25.1 20.7 69.2 31 3.2 37.8 -86.9 -3.421
11:21 1020 30.12 850 25.1 20.7 69.3 31 3.1 37.6 -86.9 -3.421
11:22 1020 30.12 849 25.07 20.8 69.4 31 3.4 38 -86.9 -3.421
11:23 1020 30.12 849 25.07 20.8 69.5 30 2.9 37.1 -86.9 -3.421
11:24 1020 30.12 849 25.07 20.9 69.6 30 2.9 37.3 -86.9 -3.421
11:25 1020 30.12 849 25.07 20.9 69.6 31 3.2 37.8 -86.9 -3.421
11:26 1020 30.12 849 25.07 20.9 69.6 31 3.4 38.1 -86.9 -3.421
11:27 1020 30.12 849 25.07 20.9 69.6 32 3.6 38.5 -86.9 -3.421
11:28 1020 30.12 849 25.07 20.9 69.7 30 2.9 37.3 -86.9 -3.421
11:29 1020 30.12 849 25.07 21 69.8 32 3.9 38.9 -86.8 -3.417
11:30 1020 30.12 849 25.07 21.1 70 31 3.7 38.6 -86.8 -3.417
11:31 1020 30.12 849 25.07 21.3 70.3 30 3 37.4 -86.8 -3.417
11:32 1020 30.12 849 25.07 21.5 70.7 28 2.6 36.7 -86.8 -3.417
11:33 1020 30.12 849 25.07 21.7 71 29 3.3 37.9 -86.7 -3.413
11:34 1020 30.12 849 25.07 21.9 71.4 29 3.5 38.3 -86.7 -3.413
11:35 1020 30.12 849 25.07 22.1 71.8 30 3.8 38.9 -86.7 -3.413
11:36 1020 30.12 849 25.07 22.3 72.1 30 4.1 39.5 -86.7 -3.413
11:37 1020 30.12 849 25.07 22.3 72.2 31 4.4 40 -86.7 -3.413
11:38 1020 30.12 850 25.1 22.4 72.3 33 5.7 42.2 -86.7 -3.413
11:39 1020 30.12 850 25.1 22.5 72.4 29 3.9 39 -86.6 -3.409
11:40 1020 30.12 849 25.07 22.5 72.5 27 2.9 37.3 -86.6 -3.409
11:41 1020 30.12 849 25.07 22.6 72.7 28 3.6 38.5 -86.6 -3.409
11:42 1020 30.12 849 25.07 22.7 72.9 28 3.4 38.2 -86.6 -3.409
11:43 1020 30.12 849 25.07 22.7 72.9 30 4.6 40.2 -86.5 -3.406
11:44 1020 30.12 850 25.1 22.8 73 27 3.2 37.7 -86.5 -3.406
11:45 1020 30.12 850 25.1 22.8 73.1 29 4 39.1 -86.5 -3.406
11:46 1020 30.12 850 25.1 22.9 73.2 29 4 39.2 -86.5 -3.406
11:47 1020 30.12 849 25.07 22.9 73.2 27 2.9 37.3 -86.4 -3.402
11:48 1020 30.12 849 25.07 22.8 73.1 27 3.1 37.6 -86.4 -3.402
11:49 1020 30.12 850 25.1 22.7 72.9 29 3.8 38.8 -86.4 -3.402
11:50 1020 30.12 850 25.1 22.6 72.7 28 3.5 38.2 -86.3 -3.398
11:51 1020 30.12 850 25.1 22.6 72.7 27 2.6 36.7 -86.3 -3.398
11:52 1020 30.12 850 25.1 22.6 72.7 27 3 37.4 -86.3 -3.398
11:53 1020 30.12 849 25.07 22.6 72.7 26 2.5 36.4 -86.3 -3.398
11:54 1020 30.12 850 25.1 22.7 72.8 27 3 37.5 -86.3 -3.398
11:55 1020 30.12 850 25.1 22.7 72.8 31 4.7 40.4 -86.2 -3.394
11:56 1020 30.12 850 25.1 22.7 72.9 27 3.1 37.6 -86.2 -3.394
11:57 1020 30.12 850 25.1 22.8 73.1 27 3.3 37.9 -86.2 -3.394
11:58 1020 30.12 850 25.1 23 73.3 27 3 37.4 -86.1 -3.39
11:59 1020 30.12 850 25.1 23.1 73.6 31 5.1 41.1 -86.1 -3.39
12:00 1020 30.12 850 25.1 23.2 73.7 31 5.3 41.5 -86.1 -3.39
12:01 1020 30.12 850 25.1 23.3 74 29 4.5 40 -86 -3.386
12:02 1020 30.12 850 25.1 23.3 74 29 4.7 40.5 -86 -3.386
12:03 1020 30.12 850 25.1 23.4 74 28 4.3 39.7 -86 -3.386
12:04 1020 30.12 850 25.1 23.4 74.2 29 4.6 40.3 -85.9 -3.382
12:05 1020 30.12 850 25.1 23.6 74.4 29 4.9 40.9 -85.9 -3.382
12:06 1020 30.12 850 25.1 23.6 74.5 28 4.4 40 -85.8 -3.378
12:07 1020 30.12 850 25.1 23.7 74.7 27 4.1 39.4 -85.8 -3.378
12:08 1020 30.12 850 25.1 23.9 74.9 24 2.5 36.6 -85.8 -3.378
12:09 1020 30.12 850 25.1 23.9 75 25 2.6 36.7 -85.8 -3.378
12:10 1020 30.12 850 25.1 24 75.1 26 3.6 38.4 -85.7 -3.374
12:11 1020 30.12 850 25.1 24.1 75.3 26 3.6 38.4 -85.7 -3.374
12:12 1020 30.12 850 25.1 24.1 75.4 25 3.1 37.5 -85.6 -3.37
12:13 1020 30.12 850 25.1 24.1 75.4 25 3 37.4 -85.6 -3.37
12:14 1020 30.12 850 25.1 24 75.2 26 3.5 38.3 -85.6 -3.37
12:15 1020 30.12 850 25.1 23.9 74.9 27 4 39.1 -85.5 -3.366
12:16 1020 30.12 850 25.1 23.9 75 26 3.6 38.4 -85.5 -3.366
12:17 1020 30.12 850 25.1 23.9 75 28 4.5 40 -85.4 -3.362
12:18 1020 30.12 849 25.07 23.9 75.1 27 4.3 39.7 -85.4 -3.362
12:19 1020 30.12 850 25.1 23.8 74.9 25 2.8 37 -85.4 -3.362
12:20 1020 30.12 849 25.07 23.6 74.5 26 3.1 37.5 -85.3 -3.358
12:21 1020 30.12 849 25.07 23.4 74.1 27 3.7 38.7 -85.3 -3.358
12:22 1020 30.12 849 25.07 23.4 74 26 3 37.5 -85.2 -3.354
12:23 1020 30.12 850 25.1 23.2 73.8 27 3.6 38.5 -85.2 -3.354
12:24 1020 30.12 849 25.07 23.1 73.6 28 3.7 38.6 -85.2 -3.354
12:25 1020 30.12 849 25.07 23 73.4 29 4.1 39.4 -85.2 -3.354
12:26 1020 30.12 849 25.07 22.8 73.1 29 4.2 39.6 -85.1 -3.35
12:27 1020 30.12 849 25.07 22.8 73 29 4.1 39.3 -85.1 -3.35
12:28 1020 30.12 849 25.07 22.6 72.6 32 5.1 41.2 -85 -3.346
12:29 1020 30.12 849 25.07 22.4 72.4 32 5.1 41.1 -85 -3.346
12:30 1020 30.12 849 25.07 22.2 72 31 4.5 40.1 -85 -3.346
12:31 1020 30.12 849 25.07 22.2 72 29 3.6 38.5 -85 -3.346
12:32 1020 30.12 849 25.07 22.3 72.1 28 3.1 37.7 -85 -3.346
12:33 1020 30.12 849 25.07 22.4 72.3 29 3.8 38.9 -84.9 -3.343
12:34 1020 30.12 849 25.07 22.3 72.2 32 4.8 40.6 -84.9 -3.343
12:35 1020 30.12 849 25.07 22.3 72.1 32 4.9 40.9 -84.9 -3.343
12:36 1020 30.12 849 25.07 22.1 71.8 34 5.9 42.6 -84.9 -3.343
12:37 1020 30.12 849 25.07 22.1 71.7 31 4.4 40 -84.8 -3.339
12:38 1020 30.12 849 25.07 22.1 71.8 31 4.2 39.5 -84.8 -3.339
12:39 1020 30.12 849 25.07 22.1 71.8 32 5 41.1 -84.7 -3.335
12:40 1020 30.12 849 25.07 22 71.6 33 5.1 41.2 -84.7 -3.335
12:41 1020 30.12 849 25.07 22 71.6 33 5.1 41.1 -84.7 -3.335
12:42 1020 30.12 849 25.07 21.9 71.5 33 5.2 41.4 -84.7 -3.335
12:43 1020 30.12 849 25.07 22 71.5 31 4.4 39.9 -84.7 -3.335
12:44 1020 30.12 849 25.07 22 71.6 32 4.9 40.8 -84.7 -3.335
12:45 1020 30.12 849 25.07 21.9 71.5 36 6.2 43.2 -84.7 -3.335
12:46 1020 30.12 849 25.07 21.8 71.3 35 6 42.8 -84.7 -3.335
12:47 1020 30.12 849 25.07 21.7 71 36 6.2 43.1 -84.7 -3.335
12:48 1020 30.12 849 25.07 21.5 70.6 36 5.8 42.4 -84.7 -3.335
12:49 1020 30.12 849 25.07 21.4 70.5 39 7.1 44.8 -84.7 -3.335
12:50 1020 30.12 849 25.07 21.3 70.4 39 6.9 44.4 -84.7 -3.335
12:51 1020 30.12 849 25.07 21.3 70.3 41 7.6 45.7 -84.7 -3.335
12:52 1020 30.12 849 25.07 21.3 70.3 33 4.7 40.5 -84.7 -3.335
12:53 1020 30.12 849 25.07 21.4 70.5 38 6.7 44 -84.7 -3.335
12:54 1020 30.12 849 25.07 21.5 70.6 39 7.2 44.9 -84.7 -3.335
12:55 1020 30.12 849 25.07 21.3 70.4 42 8.2 46.8 -84.7 -3.335
12:56 1020 30.12 849 25.07 21.2 70.1 39 6.8 44.2 -84.7 -3.335
12:57 1020 30.12 849 25.07 21 69.7 40 7.2 45 -84.9 -3.343
12:58 1020 30.12 849 25.07 20.8 69.5 41 7.4 45.4 -85.1 -3.35
12:59 1020 30.12 849 25.07 20.7 69.3 41 7.3 45.2 -85.6 -3.37
13:00 1020 30.12 849 25.07 20.7 69.2 41 7.2 44.9 -86.3 -3.398
13:01 1020 30.12 849 25.07 20.6 69 43 7.7 45.8 -86.7 -3.413
13:02 1020 30.12 849 25.07 20.5 68.8 42 7.4 45.4 -88 -3.465
13:03 1020 30.12 849 25.07 20.4 68.7 43 7.4 45.4 -87.9 -3.461
13:04 1020 30.12 849 25.07 20.3 68.5 41 6.7 44.1 -89.2 -3.512
13:05 1020 30.12 849 25.07 20.2 68.3 41 6.8 44.2 -89.9 -3.539
13:06 1020 30.12 849 25.07 20.1 68.1 42 7 44.5 -91 -3.583
13:07 1020 30.12 849 25.07 20 67.9 42 7 44.6 -90 -3.543
13:08 1020 30.12 849 25.07 19.9 67.7 41 6.3 43.4 -89.5 -3.524
13:09 1020 30.12 849 25.07 19.8 67.7 41 6.3 43.4 -83.7 -3.295
13:10 1020 30.12 849 25.07 19.8 67.6 41 6.4 43.5 -84.7 -3.335
13:11 1020 30.12 849 25.07 19.8 67.6 42 6.6 43.9 -81.5 -3.209
13:12 1020 30.12 849 25.07 19.7 67.4 44 7.3 45.1 -78.9 -3.106
13:13 1020 30.12 849 25.07 19.6 67.2 47 8.2 46.8 -76.6 -3.016
13:14 1020 30.12 850 25.1 19.3 66.7 52 9.3 48.7 -72.2 -2.843
13:15 1020 30.12 850 25.1 18.7 65.6 58 10.3 50.5 -75.2 -2.961
13:16 1021 30.15 850 25.1 17.9 64.1 62 10.5 50.9 -76.6 -3.016
13:17 1020 30.12 850 25.1 17.1 62.8 58 9 48.2 -77.6 -3.055
13:18 1020 30.12 849 25.07 16.6 61.8 55 7.6 45.7 -78.9 -3.106
13:19 1020 30.12 850 25.1 16.7 62.1 49 5.9 42.7 -79.8 -3.142
13:20 1020 30.12 850 25.1 17 62.6 52 7.2 44.9 -80.2 -3.157
13:21 1020 30.12 850 25.1 16.8 62.2 59 8.7 47.7 -80.5 -3.169
13:22 1020 30.12 850 25.1 16.4 61.4 60 8.7 47.6 -80.6 -3.173
13:23 1020 30.12 850 25.1 16.2 61.2 55 7.2 44.9 -80.8 -3.181
13:24 1020 30.12 849 25.07 16.5 61.8 58 8.3 46.9 -80.9 -3.185
13:25 1020 30.12 849 25.07 16.5 61.7 59 8.6 47.6 -81 -3.189
13:26 1020 30.12 850 25.1 16.6 61.8 60 8.9 48 -81.1 -3.193
13:27 1020 30.12 850 25.1 16.6 61.8 60 9 48.1 -81.2 -3.197
13:28 1020 30.12 850 25.1 16.7 62.1 54 7.5 45.6 -81.3 -3.201
13:29 1020 30.12 850 25.1 17 62.7 55 8 46.4 -81.4 -3.205
13:30 1020 30.12 850 25.1 17.3 63.2 57 8.7 47.7 -81.5 -3.209
13:31 1020 30.12 850 25.1 17.5 63.5 64 10.8 51.4 -81.6 -3.213
13:32 1020 30.12 850 25.1 17.4 63.4 56 8.7 47.7 -81.7 -3.217
13:33 1020 30.12 850 25.1 17.5 63.5 56 8.6 47.6 -81.8 -3.22
13:34 1020 30.12 850 25.1 17.5 63.5 59 9.5 49 -81.8 -3.22
13:35 1020 30.12 850 25.1 17.4 63.4 57 8.9 48 -81.9 -3.224
13:36 1020 30.12 850 25.1 17.4 63.2 62 10 50 -82 -3.228
13:37 1020 30.12 849 25.07 17.2 63 56 8.5 47.3 -82 -3.228
13:38 1020 30.12 849 25.07 17.2 62.9 52 7.5 45.4 -82.1 -3.232
13:39 1020 30.12 849 25.07 17.2 62.9 53 7.7 45.9 -82.1 -3.232
13:40 1020 30.12 849 25.07 17.2 62.9 54 7.9 46.3 -82.1 -3.232
13:41 1020 30.12 849 25.07 17.2 63 55 8.1 46.7 -82.1 -3.232
13:42 1020 30.12 849 25.07 17.3 63.1 58 9 48.2 -82.2 -3.236
13:43 1020 30.12 849 25.07 17.3 63.2 56 8.5 47.3 -82.2 -3.236
13:44 1020 30.12 849 25.07 17.4 63.4 54 8.2 46.7 -82.2 -3.236
13:45 1020 30.12 849 25.07 17.5 63.6 53 8.1 46.5 -82.3 -3.24
13:46 1020 30.12 849 25.07 17.6 63.7 56 8.8 47.9 -82.3 -3.24
13:47 1020 30.12 849 25.07 17.7 63.8 53 8.1 46.6 -82.3 -3.24
13:48 1020 30.12 849 25.07 17.7 63.8 55 8.7 47.6 -82.3 -3.24
13:49 1020 30.12 849 25.07 17.7 63.8 58 9.4 48.9 -82.4 -3.244
13:50 1020 30.12 849 25.07 17.7 63.8 57 9.1 48.4 -82.4 -3.244
13:51 1020 30.12 849 25.07 17.8 64 58 9.6 49.3 -82.4 -3.244
13:52 1020 30.12 849 25.07 17.8 64 54 8.6 47.4 -82.5 -3.248
13:53 1020 30.12 849 25.07 17.8 64 56 9.1 48.3 -82.5 -3.248
13:54 1020 30.12 849 25.07 17.7 63.9 55 8.8 47.8 -82.5 -3.248
13:55 1020 30.12 849 25.07 17.7 63.8 55 8.8 47.8 -82.6 -3.252
13:56 1020 30.12 849 25.07 17.7 63.9 53 8.1 46.6 -82.6 -3.252
13:57 1020 30.12 849 25.07 17.9 64.1 55 8.7 47.7 -82.6 -3.252
13:58 1020 30.12 849 25.07 17.9 64.2 57 9.3 48.7 -82.6 -3.252
13:59 1020 30.12 849 25.07 17.9 64.2 56 9.2 48.5 -82.7 -3.256
14:00 1020 30.12 850 25.1 17.9 64.2 57 9.4 48.9 -82.7 -3.256
14:01 1020 30.12 850 25.1 17.8 64 61 10.2 50.3 -82.7 -3.256
14:02 1020 30.12 850 25.1 17.7 63.8 58 9.3 48.8 -82.8 -3.26
14:03 1020 30.12 849 25.07 17.5 63.5 59 9.5 49.1 -82.8 -3.26
14:04 1020 30.12 849 25.07 17.4 63.3 61 9.8 49.7 -82.8 -3.26
14:05 1020 30.12 849 25.07 17.4 63.2 57 8.8 47.8 -82.8 -3.26
14:06 1020 30.12 849 25.07 17.3 63.2 57 8.8 47.8 -82.9 -3.264
14:07 1020 30.12 849 25.07 17.2 63 58 9 48.2 -82.9 -3.264
14:08 1020 30.12 849 25.07 17.2 63 61 9.8 49.7 -82.9 -3.264
14:09 1020 30.12 849 25.07 17.2 62.9 59 9.3 48.7 -82.9 -3.264
14:10 1020 30.12 849 25.07 17.1 62.8 58 8.9 48 -82.9 -3.264
14:11 1020 30.12 849 25.07 17.1 62.8 56 8.3 47 -82.9 -3.264
14:12 1020 30.12 849 25.07 17.1 62.8 57 8.6 47.4 -83 -3.268
14:13 1020 30.12 849 25.07 17.1 62.8 59 9.2 48.5 -83 -3.268
14:14 1020 30.12 849 25.07 17.2 62.9 58 9 48.2 -83 -3.268
14:15 1020 30.12 849 25.07 17.2 62.9 58 9 48.2 -83 -3.268
14:16 1020 30.12 849 25.07 17.2 63 60 9.4 48.9 -83.1 -3.272
14:17 1020 30.12 849 25.07 17.2 63 57 8.8 47.8 -83.1 -3.272
14:18 1020 30.12 849 25.07 17.2 63 56 8.4 47.1 -83.1 -3.272
14:19 1020 30.12 849 25.07 17.3 63.2 54 8.1 46.7 -83.2 -3.276
14:20 1020 30.12 849 25.07 17.3 63.2 57 8.8 47.8 -83.2 -3.276
14:21 1020 30.12 849 25.07 17.4 63.2 58 9.1 48.3 -83.2 -3.276
14:22 1020 30.12 849 25.07 17.3 63.2 55 8.3 47 -83.2 -3.276
14:23 1020 30.12 849 25.07 17.3 63.2 57 8.8 47.9 -83.2 -3.276
14:24 1020 30.12 849 25.07 17.3 63.2 55 8.4 47.1 -83.2 -3.276
14:25 1020 30.12 849 25.07 17.3 63.2 55 8.3 47 -83.2 -3.276
14:26 1020 30.12 850 25.1 17.3 63.2 58 9.1 48.4 -83.2 -3.276
14:27 1020 30.12 850 25.1 17.3 63.1 60 9.6 49.3 -83.3 -3.28
14:28 1020 30.12 850 25.1 17.1 62.8 61 9.7 49.5 -83.6 -3.291
14:29 1020 30.12 850 25.1 17 62.6 60 9.2 48.6 -84.4 -3.323
14:30 1020 30.12 850 25.1 16.9 62.4 61 9.4 48.8 -85 -3.346
14:31 1020 30.12 850 25.1 16.9 62.4 62 9.7 49.4 -84.8 -3.339
14:32 1020 30.12 850 25.1 16.8 62.3 61 9.4 49 -84 -3.307
14:33 1020 30.12 850 25.1 16.8 62.2 62 9.5 49.2 -82.7 -3.256
14:34 1021 30.15 850 25.1 16.7 62.1 62 9.6 49.2 -81.1 -3.193
14:35 1021 30.15 850 25.1 16.7 62 63 9.8 49.7 -80.5 -3.169
14:36 1021 30.15 850 25.1 16.6 61.9 62 9.3 48.8 -84.2 -3.315
14:37 1021 30.15 850 25.1 16.6 61.8 63 9.6 49.3 -86.7 -3.413
14:38 1020 30.12 850 25.1 16.5 61.8 64 9.7 49.5 -85.6 -3.37
14:39 1020 30.12 850 25.1 16.5 61.7 65 10 50 -84.9 -3.343
14:40 1020 30.12 850 25.1 16.5 61.7 65 9.9 49.9 -84.7 -3.335
14:41 1020 30.12 850 25.1 16.6 61.8 64 9.8 49.7 -85.5 -3.366
14:42 1020 30.12 850 25.1 16.7 62 66 10.3 50.6 -85.6 -3.37
14:43 1020 30.12 850 25.1 16.8 62.2 66 10.5 50.8 -85.3 -3.358
14:44 1020 30.12 850 25.1 17 62.6 68 11.1 52.1 -85.6 -3.37
14:45 1020 30.12 850 25.1 17.2 63 66 10.9 51.5 -85.6 -3.37
14:46 1020 30.12 850 25.1 17.4 63.4 57 8.8 47.9 -85.6 -3.37
14:47 1020 30.12 849 25.07 17.6 63.7 52 7.8 46.1 -85.5 -3.366
14:48 1020 30.12 849 25.07 17.6 63.7 55 8.5 47.3 -85.4 -3.362
14:49 1020 30.12 849 25.07 17.7 63.8 57 9.1 48.4 -85.4 -3.362
14:50 1020 30.12 849 25.07 17.7 63.8 60 9.9 49.8 -85.4 -3.362
14:51 1020 30.12 849 25.07 17.7 63.8 59 9.8 49.6 -85.4 -3.362
14:52 1020 30.12 849 25.07 17.7 63.8 59 9.7 49.4 -85.4 -3.362
14:53 1020 30.12 849 25.07 17.7 63.9 61 10.3 50.6 -85.4 -3.362
14:54 1020 30.12 849 25.07 17.8 64.1 57 9.4 48.9 -85.5 -3.366
14:55 1020 30.12 849 25.07 17.9 64.2 58 9.6 49.2 -85.5 -3.366
14:56 1020 30.12 849 25.07 18 64.4 53 8.5 47.3 -85.5 -3.366
14:57 1020 30.12 849 25.07 18.1 64.6 52 8.2 46.8 -85.6 -3.37
14:58 1020 30.12 849 25.07 18.2 64.7 57 9.7 49.4 -85.6 -3.37
14:59 1020 30.12 849 25.07 18.2 64.7 61 10.6 51.2 -85.6 -3.37
15:00 1020 30.12 849 25.07 18.1 64.7 61 10.5 50.9 -85.6 -3.37
15:01 1020 30.12 849 25.07 18 64.4 59 10.1 50.1 -85.7 -3.374
15:02 1020 30.12 849 25.07 17.8 64 59 9.9 49.7 -85.7 -3.374
15:03 1020 30.12 849 25.07 17.6 63.6 63 10.4 50.8 -85.7 -3.374
15:04 1020 30.12 849 25.07 17.4 63.4 63 10.4 50.6 -85.7 -3.374
15:05 1020 30.12 849 25.07 17.3 63.1 65 10.7 51.3 -85.8 -3.378
15:06 1020 30.12 849 25.07 17.2 63 62 10 49.9 -85.8 -3.378
15:07 1020 30.12 849 25.07 17.1 62.8 65 10.6 51.1 -85.8 -3.378
15:08 1020 30.12 849 25.07 17.2 62.9 64 10.3 50.6 -85.8 -3.378
15:09 1020 30.12 849 25.07 17.2 62.9 68 11.2 52.1 -85.8 -3.378
15:10 1020 30.12 849 25.07 17.3 63.1 64 10.6 51 -85.8 -3.378
15:11 1020 30.12 849 25.07 17.3 63.2 64 10.6 51 -85.8 -3.378
15:12 1020 30.12 849 25.07 17.4 63.3 63 10.3 50.6 -85.8 -3.378
15:13 1020 30.12 849 25.07 17.5 63.5 65 10.8 51.5 -85.8 -3.378
15:14 1020 30.12 849 25.07 17.6 63.7 64 10.8 51.4 -85.8 -3.378
15:15 1020 30.12 849 25.07 17.8 64 60 10.1 50.2 -85.8 -3.378
15:16 1020 30.12 849 25.07 17.9 64.2 56 9.1 48.3 -85.8 -3.378
15:17 1020 30.12 849 25.07 18.1 64.5 60 10.2 50.3 -85.8 -3.378
15:18 1020 30.12 849 25.07 18.2 64.8 58 9.9 49.8 -85.8 -3.378
15:19 1020 30.12 849 25.07 18.4 65 57 9.7 49.4 -85.9 -3.382
15:20 1020 30.12 849 25.07 18.4 65.2 57 9.9 49.9 -85.9 -3.382
15:21 1020 30.12 849 25.07 18.5 65.3 59 10.4 50.8 -85.9 -3.382
15:22 1020 30.12 849 25.07 18.5 65.3 57 10 49.9 -85.9 -3.382
15:23 1020 30.12 849 25.07 18.5 65.3 56 9.6 49.3 -85.9 -3.382
15:24 1020 30.12 849 25.07 18.6 65.4 58 10.4 50.7 -86 -3.386
15:25 1020 30.12 849 25.07 18.6 65.4 58 10.3 50.6 -86 -3.386
15:26 1020 30.12 849 25.07 18.6 65.5 57 10 50 -85.9 -3.382
15:27 1020 30.12 849 25.07 18.6 65.6 58 10.3 50.6 -85.9 -3.382
15:28 1020 30.12 849 25.07 18.8 65.8 61 11.1 52 -85.9 -3.382
15:29 1020 30.12 849 25.07 18.9 66 60 11.1 52 -85.9 -3.382
15:30 1020 30.12 849 25.07 18.9 66.1 56 10 50 -85.9 -3.382
15:31 1020 30.12 849 25.07 18.9 66.1 57 10.5 50.8 -85.9 -3.382
15:32 1020 30.12 849 25.07 18.9 66 55 9.9 49.8 -85.9 -3.382
15:33 1020 30.12 849 25.07 18.9 66.1 54 9.7 49.4 -85.9 -3.382
15:34 1020 30.12 849 25.07 18.9 66.1 56 10 50 -85.9 -3.382
15:35 1020 30.12 849 25.07 18.9 66.1 55 9.8 49.6 -85.9 -3.382
15:36 1020 30.12 849 25.07 19 66.2 53 9.4 48.9 -85.9 -3.382
15:37 1020 30.12 849 25.07 19 66.2 53 9.3 48.8 -85.9 -3.382
15:38 1020 30.12 849 25.07 19 66.2 56 10.1 50.2 -85.9 -3.382
15:39 1020 30.12 849 25.07 19 66.3 54 9.7 49.5 -85.9 -3.382
15:40 1020 30.12 849 25.07 19.1 66.4 60 11.2 52.1 -85.9 -3.382
15:41 1020 30.12 849 25.07 19.2 66.5 58 10.9 51.6 -85.9 -3.382
15:42 1020 30.12 849 25.07 19.3 66.7 58 10.8 51.4 -85.9 -3.382
15:43 1020 30.12 849 25.07 19.3 66.7 58 10.9 51.6 -85.9 -3.382
15:44 1020 30.12 849 25.07 19.3 66.7 57 10.6 51.1 -85.9 -3.382
15:45 1020 30.12 849 25.07 19.3 66.7 57 10.6 51.1 -85.9 -3.382
15:46 1020 30.12 849 25.07 19.3 66.7 55 10.2 50.3 -85.8 -3.378
15:47 1020 30.12 849 25.07 19.2 66.5 57 10.6 51.1 -85.8 -3.378
15:48 1020 30.12 849 25.07 19.1 66.4 57 10.6 51 -85.8 -3.378
15:49 1020 30.12 849 25.07 19 66.2 54 9.6 49.3 -85.8 -3.378
15:50 1020 30.12 849 25.07 18.9 66 53 9.1 48.4 -85.8 -3.378
15:51 1020 30.12 849 25.07 18.8 65.9 56 9.9 49.7 -85.8 -3.378
15:52 1020 30.12 849 25.07 18.7 65.7 55 9.6 49.4 -85.8 -3.378
15:53 1020 30.12 849 25.07 18.7 65.7 57 10.2 50.3 -85.8 -3.378
15:54 1020 30.12 849 25.07 18.7 65.6 59 10.6 51 -85.8 -3.378
15:55 1019 30.09 849 25.07 18.7 65.6 58 10.5 50.8 -85.8 -3.378
15:56 1019 30.09 849 25.07 18.7 65.6 59 10.7 51.3 -85.8 -3.378
15:57 1019 30.09 849 25.07 18.7 65.7 57 10.1 50.2 -85.8 -3.378
15:58 1019 30.09 849 25.07 18.8 65.8 55 9.7 49.4 -85.8 -3.378
15:59 1019 30.09 849 25.07 18.8 65.9 56 10.1 50.1 -85.8 -3.378
16:00 1019 30.09 849 25.07 18.9 66 53 9.3 48.7 -85.8 -3.378
16:01 1019 30.09 849 25.07 18.9 66.1 56 10 49.9 -85.8 -3.378
16:02 1019 30.09 849 25.07 19 66.2 54 9.5 49.1 -85.8 -3.378
16:03 1019 30.09 849 25.07 19 66.3 53 9.3 48.7 -85.8 -3.378
16:04 1019 30.09 849 25.07 19.1 66.3 54 9.8 49.6 -85.8 -3.378
16:05 1019 30.09 849 25.07 19.1 66.4 54 9.7 49.5 -85.8 -3.378
16:06 1019 30.09 849 25.07 19.2 66.6 52 9.1 48.4 -85.8 -3.378
16:07 1019 30.09 849 25.07 19.2 66.6 51 8.9 48.1 -85.8 -3.378
16:08 1019 30.09 849 25.07 19.3 66.7 53 9.5 49 -85.8 -3.378
16:09 1019 30.09 849 25.07 19.3 66.7 50 8.7 47.7 -85.8 -3.378
16:10 1019 30.09 849 25.07 19.3 66.8 50 8.8 47.9 -85.8 -3.378
16:11 1019 30.09 849 25.07 19.5 67 49 8.6 47.6 -85.8 -3.378
16:12 1019 30.09 849 25.07 19.6 67.2 49 8.7 47.7 -85.8 -3.378
16:13 1019 30.09 849 25.07 19.6 67.3 50 9 48.1 -85.8 -3.378
16:14 1019 30.09 849 25.07 19.6 67.4 47 8.2 46.7 -85.8 -3.378
16:15 1019 30.09 849 25.07 19.7 67.5 50 9.2 48.6 -85.8 -3.378
16:16 1019 30.09 849 25.07 19.8 67.6 51 9.5 49.1 -85.8 -3.378
16:17 1019 30.09 849 25.07 19.9 67.8 52 9.9 49.8 -85.8 -3.378
16:18 1019 30.09 849 25.07 20 67.9 48 8.8 47.8 -85.8 -3.378
16:19 1019 30.09 849 25.07 20 68 48 8.8 47.9 -85.8 -3.378
16:20 1019 30.09 849 25.07 20.1 68.2 47 8.6 47.4 -85.7 -3.374
16:21 1019 30.09 849 25.07 20.2 68.3 48 9 48.1 -85.7 -3.374
16:22 1019 30.09 849 25.07 20.2 68.3 49 9.2 48.5 -85.7 -3.374
16:23 1019 30.09 849 25.07 20.2 68.4 47 8.9 47.9 -85.7 -3.374
16:24 1019 30.09 849 25.07 20.4 68.7 46 8.6 47.5 -85.7 -3.374
16:25 1019 30.09 849 25.07 20.4 68.7 46 8.5 47.3 -85.7 -3.374
16:26 1019 30.09 849 25.07 20.4 68.8 48 9.1 48.4 -85.7 -3.374
16:27 1019 30.09 849 25.07 20.5 68.9 46 8.8 47.8 -85.7 -3.374
16:28 1019 30.09 849 25.07 20.5 69 48 9.3 48.7 -85.7 -3.374
16:29 1019 30.09 849 25.07 20.6 69.1 48 9.2 48.6 -85.6 -3.37
16:30 1019 30.09 849 25.07 20.8 69.4 45 8.7 47.6 -85.6 -3.37
16:31 1019 30.09 849 25.07 20.8 69.5 44 8.4 47.1 -85.6 -3.37
16:32 1019 30.09 849 25.07 20.8 69.5 48 9.7 49.4 -85.6 -3.37
16:33 1019 30.09 849 25.07 20.8 69.5 46 8.8 47.8 -85.6 -3.37
16:34 1019 30.09 849 25.07 20.8 69.4 46 8.8 47.8 -85.6 -3.37
16:35 1019 30.09 849 25.07 20.6 69.1 47 9 48.2 -85.5 -3.366
16:36 1019 30.09 849 25.07 20.5 69 48 9.2 48.5 -85.5 -3.366
16:37 1019 30.09 849 25.07 20.4 68.8 50 9.9 49.8 -85.5 -3.366
16:38 1019 30.09 849 25.07 20.3 68.6 48 9 48.1 -85.5 -3.366
16:39 1019 30.09 849 25.07 20.3 68.5 48 9 48.1 -85.5 -3.366
16:40 1019 30.09 849 25.07 20.3 68.5 48 9 48.2 -85.5 -3.366
16:41 1019 30.09 849 25.07 20.2 68.4 48 9.1 48.3 -85.4 -3.362
16:42 1019 30.09 849 25.07 20.2 68.3 47 8.6 47.5 -85.4 -3.362
16:43 1019 30.09 849 25.07 20.1 68.3 49 9.2 48.6 -85.4 -3.362
16:44 1019 30.09 849 25.07 20.1 68.2 50 9.5 49.1 -85.4 -3.362
16:45 1019 30.09 849 25.07 20 67.9 49 9.2 48.6 -85.4 -3.362
16:46 1019 30.09 848 25.04 20 67.9 50 9.4 48.9 -85.4 -3.362
16:47 1019 30.09 849 25.07 19.9 67.9 50 9.4 48.8 -85.3 -3.358
16:48 1019 30.09 848 25.04 19.9 67.7 51 9.7 49.4 -85.3 -3.358
16:49 1019 30.09 849 25.07 19.9 67.8 50 9.3 48.7 -85.2 -3.354
16:50 1019 30.09 848 25.04 20 67.9 49 9 48.3 -85.2 -3.354
16:51 1019 30.09 849 25.07 20 68 51 9.6 49.3 -85.2 -3.354
16:52 1019 30.09 848 25.04 20 68.1 48 9 48.1 -85.2 -3.354
16:53 1019 30.09 848 25.04 20.1 68.1 48 8.8 47.8 -85.2 -3.354
16:54 1019 30.09 848 25.04 20.1 68.1 50 9.4 48.9 -85.1 -3.35
16:55 1019 30.09 848 25.04 20.1 68.1 49 9.3 48.7 -85.1 -3.35
16:56 1019 30.09 848 25.04 20 68.1 50 9.5 49.1 -85 -3.346
16:57 1019 30.09 848 25.04 20 68 52 9.9 49.8 -85 -3.346
16:58 1019 30.09 848 25.04 20 67.9 50 9.4 49 -85 -3.346
16:59 1019 30.09 848 25.04 19.9 67.9 53 10.1 50.1 -84.9 -3.343
17:00 1019 30.09 849 25.07 19.9 67.8 53 10.1 50.2 -84.9 -3.343
17:01 1019 30.09 849 25.07 19.9 67.8 53 10.2 50.4 -84.9 -3.343
17:02 1019 30.09 849 25.07 19.9 67.8 52 10 50 -84.9 -3.343
17:03 1019 30.09 849 25.07 19.9 67.8 52 9.8 49.6 -85 -3.346
17:04 1019 30.09 849 25.07 19.9 67.7 51 9.7 49.4 -85.1 -3.35
17:05 1019 30.09 849 25.07 19.9 67.8 52 9.8 49.6 -85.2 -3.354
17:06 1020 30.12 849 25.07 19.8 67.7 52 9.9 49.8 -85.2 -3.354
17:07 1020 30.12 849 25.07 19.9 67.8 53 10.1 50.3 -85.2 -3.354
17:08 1020 30.12 849 25.07 19.8 67.6 55 10.6 51 -85.1 -3.35
17:09 1020 30.12 849 25.07 19.7 67.5 54 10.4 50.7 -85.1 -3.35
17:10 1020 30.12 849 25.07 19.7 67.4 54 10.1 50.2 -85 -3.346
17:11 1020 30.12 849 25.07 19.6 67.2 55 10.3 50.6 -85 -3.346
17:12 1020 30.12 849 25.07 19.5 67.1 53 9.7 49.4 -85 -3.346
17:13 1020 30.12 849 25.07 19.5 67 53 9.7 49.5 -85.1 -3.35
17:14 1020 30.12 849 25.07 19.4 66.9 53 9.5 49.2 -85.1 -3.35
17:15 1020 30.12 849 25.07 19.3 66.8 51 9.2 48.5 -85.1 -3.35
17:16 1020 30.12 849 25.07 19.3 66.7 52 9.4 48.9 -85.2 -3.354
17:17 1020 30.12 849 25.07 19.3 66.7 50 8.8 47.9 -85.2 -3.354
17:18 1020 30.12 849 25.07 19.3 66.8 50 8.9 48 -85.2 -3.354
17:19 1020 30.12 849 25.07 19.4 66.8 49 8.5 47.3 -85.2 -3.354
17:20 1020 30.12 849 25.07 19.4 66.9 47 7.9 46.2 -85.2 -3.354
17:21 1020 30.12 849 25.07 19.4 66.9 46 7.7 45.9 -85.2 -3.354
17:22 1020 30.12 849 25.07 19.4 66.9 45 7.2 44.9 -85.2 -3.354
17:23 1020 30.12 849 25.07 19.5 67 42 6.4 43.4 -85.2 -3.354
17:24 1020 30.12 849 25.07 19.5 67.1 43 6.8 44.3 -85.1 -3.35
17:25 1020 30.12 849 25.07 19.6 67.2 43 6.9 44.4 -85 -3.346
17:26 1020 30.12 849 25.07 19.6 67.3 42 6.5 43.7 -84.9 -3.343
17:27 1020 30.12 849 25.07 19.7 67.5 40 5.7 42.3 -84.7 -3.335
17:28 1020 30.12 849 25.07 19.9 67.8 42 6.6 43.9 -84.4 -3.323
17:29 1020 30.12 849 25.07 19.9 67.9 42 6.8 44.3 -83.9 -3.303
17:30 1020 30.12 849 25.07 19.9 67.8 43 7.1 44.8 -83.3 -3.28
17:31 1020 30.12 849 25.07 19.8 67.7 43 7 44.6 -82.8 -3.26
17:32 1020 30.12 849 25.07 19.8 67.6 44 7.4 45.3 -82.6 -3.252
17:33 1020 30.12 849 25.07 19.7 67.5 44 7.2 45 -82.4 -3.244
17:34 1020 30.12 849 25.07 19.7 67.5 46 7.8 46 -82.6 -3.252
17:35 1020 30.12 849 25.07 19.6 67.3 46 8 46.3 -82.7 -3.256
17:36 1020 30.12 849 25.07 19.5 67.2 47 8 46.3 -82.4 -3.244
17:37 1020 30.12 849 25.07 19.5 67.1 46 7.8 46 -81.8 -3.22
17:38 1020 30.12 849 25.07 19.4 66.8 49 8.6 47.5 -81.3 -3.201
17:39 1020 30.12 849 25.07 19.1 66.5 49 8.2 46.7 -81.2 -3.197
17:40 1020 30.12 849 25.07 19 66.1 50 8.6 47.4 -80.8 -3.181
17:41 1020 30.12 849 25.07 19 66.1 53 9.3 48.7 -80.5 -3.169
17:42 1020 30.12 849 25.07 18.8 65.8 53 9.1 48.4 -80.4 -3.165
17:43 1020 30.12 849 25.07 18.7 65.6 52 8.8 47.9 -80.1 -3.154
17:44 1020 30.12 849 25.07 18.5 65.3 53 8.8 47.8 -80 -3.15
17:45 1020 30.12 849 25.07 18.4 65.1 53 8.9 48 -81.2 -3.197
17:46 1020 30.12 849 25.07 18.2 64.8 54 8.8 47.8 -80.9 -3.185
17:47 1020 30.12 849 25.07 18.2 64.7 53 8.5 47.4 -78.7 -3.098
17:48 1020 30.12 849 25.07 18 64.4 51 7.7 45.9 -79.9 -3.146
17:49 1020 30.12 849 25.07 17.7 63.8 49 7 44.5 -81.1 -3.193
17:50 1020 30.12 849 25.07 17.3 63.1 54 8 46.4 -81.7 -3.217
17:51 1020 30.12 849 25.07 16.9 62.4 51 6.8 44.3 -82 -3.228
17:52 1020 30.12 849 25.07 16.6 61.9 49 6.1 43 -82.3 -3.24
17:53 1020 30.12 849 25.07 16.6 61.8 55 7.5 45.5 -82.4 -3.244
17:54 1020 30.12 849 25.07 16.4 61.5 57 7.8 46.1 -82.5 -3.248
17:55 1020 30.12 849 25.07 16.3 61.3 53 6.7 44.1 -82.5 -3.248
17:56 1020 30.12 850 25.1 16.4 61.4 50 5.9 42.7 -82.5 -3.248
17:57 1020 30.12 850 25.1 16.5 61.7 49 5.9 42.7 -82.5 -3.248
17:58 1020 30.12 850 25.1 16.6 61.8 51 6.4 43.5 -82.6 -3.252
17:59 1020 30.12 850 25.1 16.5 61.7 52 6.7 44 -82.6 -3.252
18:00 1020 30.12 850 25.1 16.5 61.6 53 6.9 44.4 -82.6 -3.252
18:01 1020 30.12 850 25.1 16.4 61.4 55 7.3 45.2 -82.6 -3.252
18:02 1020 30.12 850 25.1 16.2 61.2 52 6.6 43.8 -82.6 -3.252
18:03 1020 30.12 850 25.1 16.1 61 56 7.3 45.2 -82.7 -3.256
18:04 1020 30.12 850 25.1 16.1 60.9 56 7.3 45.2 -82.9 -3.264
18:05 1020 30.12 850 25.1 16 60.9 57 7.5 45.6 -83 -3.268
18:06 1020 30.12 850 25.1 16.1 60.9 57 7.6 45.7 -83 -3.268
18:07 1020 30.12 849 25.07 16.1 61 59 8.2 46.8 -83.1 -3.272
18:08 1020 30.12 849 25.07 16.2 61.1 57 7.8 46.1 -83.2 -3.276
18:09 1020 30.12 849 25.07 16.2 61.1 59 8.3 46.9 -83.3 -3.28
18:10 1020 30.12 849 25.07 16.1 61 62 8.9 48 -83.4 -3.283
18:11 1020 30.12 849 25.07 16.1 61 62 8.9 48.1 -83.4 -3.283
18:12 1020 30.12 849 25.07 16.1 61 63 9.1 48.5 -83.3 -3.28
18:13 1020 30.12 849 25.07 16.1 60.9 68 10.2 50.3 -83.3 -3.28
18:14 1020 30.12 849 25.07 15.9 60.7 67 9.8 49.6 -83.2 -3.276
18:15 1020 30.12 849 25.07 15.9 60.6 66 9.6 49.4 -83.2 -3.276
18:16 1020 30.12 849 25.07 15.9 60.5 62 8.8 47.8 -83.2 -3.276
18:17 1020 30.12 849 25.07 15.9 60.6 66 9.6 49.3 -83.3 -3.28
18:18 1020 30.12 849 25.07 15.8 60.5 66 9.6 49.3 -83.3 -3.28
18:19 1020 30.12 849 25.07 15.8 60.4 67 9.6 49.3 -83.4 -3.283
18:20 1020 30.12 849 25.07 15.6 60.2 67 9.7 49.4 -83.4 -3.283
18:21 1020 30.12 849 25.07 15.5 59.9 68 9.7 49.4 -83.4 -3.283
18:22 1020 30.12 849 25.07 15.4 59.6 64 8.7 47.6 -83.4 -3.283
18:23 1020 30.12 849 25.07 15.3 59.6 64 8.6 47.4 -83.3 -3.28
18:24 1020 30.12 849 25.07 15.3 59.5 61 7.8 46 -83.3 -3.28
18:25 1020 30.12 849 25.07 15.4 59.6 59 7.4 45.4 -83.3 -3.28
18:26 1020 30.12 849 25.07 15.4 59.8 58 7.4 45.3 -83.3 -3.28
18:27 1020 30.12 849 25.07 15.4 59.8 59 7.5 45.5 -83.3 -3.28
18:28 1020 30.12 849 25.07 15.4 59.6 61 7.9 46.2 -83.3 -3.28
18:29 1020 30.12 849 25.07 15.3 59.5 62 8.1 46.6 -83.4 -3.283
18:30 1020 30.12 849 25.07 15.3 59.5 62 8.1 46.6 -83.4 -3.283
18:31 1020 30.12 849 25.07 15.2 59.4 59 7.3 45.2 -83.4 -3.283
18:32 1020 30.12 849 25.07 15.2 59.3 61 7.9 46.2 -83.4 -3.283
18:33 1020 30.12 849 25.07 15.1 59.1 62 7.9 46.3 -83.4 -3.283
18:34 1020 30.12 849 25.07 14.9 58.8 64 8.1 46.7 -83.4 -3.283
18:35 1020 30.12 849 25.07 14.8 58.7 64 8.2 46.8 -83.4 -3.283
18:36 1020 30.12 849 25.07 14.7 58.4 65 8.3 46.9 -83.4 -3.283
18:37 1020 30.12 849 25.07 14.6 58.2 66 8.3 46.9 -83.5 -3.287
18:38 1020 30.12 849 25.07 14.5 58.1 64 7.8 46 -83.5 -3.287
18:39 1020 30.12 849 25.07 14.6 58.2 62 7.5 45.5 -83.6 -3.291
18:40 1020 30.12 849 25.07 14.7 58.4 62 7.5 45.6 -83.6 -3.291
18:41 1020 30.12 849 25.07 14.7 58.5 62 7.7 45.8 -83.6 -3.291
18:42 1020 30.12 849 25.07 14.7 58.5 63 7.8 46.1 -83.7 -3.295
18:43 1020 30.12 849 25.07 14.6 58.3 63 7.8 46 -83.7 -3.295
18:44 1020 30.12 849 25.07 14.5 58 64 7.8 46 -83.7 -3.295
18:45 1020 30.12 849 25.07 14.4 57.9 64 7.7 45.9 -83.8 -3.299
18:46 1020 30.12 849 25.07 14.3 57.7 65 7.9 46.3 -83.8 -3.299
18:47 1020 30.12 849 25.07 14.1 57.4 68 8.4 47.1 -83.9 -3.303
18:48 1020 30.12 849 25.07 13.9 57 69 8.3 47 -83.9 -3.303
18:49 1020 30.12 849 25.07 13.8 56.8 69 8.2 46.7 -83.9 -3.303
18:50 1020 30.12 849 25.07 13.7 56.7 69 8.1 46.7 -83.9 -3.303
18:51 1020 30.12 849 25.07 13.7 56.7 70 8.4 47.2 -84 -3.307
18:52 1020 30.12 849 25.07 13.6 56.5 72 8.8 47.8 -84 -3.307
18:53 1020 30.12 849 25.07 13.4 56.1 74 8.9 48 -84 -3.307
18:54 1020 30.12 849 25.07 13.3 55.9 73 8.6 47.5 -84.1 -3.311
18:55 1020 30.12 849 25.07 13.2 55.8 75 8.9 48 -84.1 -3.311
18:56 1020 30.12 849 25.07 13.1 55.7 75 8.8 47.9 -84.1 -3.311
18:57 1020 30.12 849 25.07 13.2 55.8 74 8.7 47.7 -84.1 -3.311
18:58 1020 30.12 849 25.07 13.2 55.8 74 8.7 47.7 -84.1 -3.311
18:59 1020 30.12 849 25.07 13.2 55.7 74 8.6 47.5 -84.2 -3.315
19:00 1020 30.12 849 25.07 13.1 55.6 74 8.6 47.5 -84.2 -3.315
19:01 1020 30.12 849 25.07 13 55.4 74 8.5 47.2 -84.2 -3.315
19:02 1020 30.12 849 25.07 13 55.4 73 8.4 47 -84.3 -3.319
19:03 1020 30.12 849 25.07 13.1 55.5 72 8.2 46.8 -84.3 -3.319
19:04 1020 30.12 849 25.07 13.2 55.7 72 8.3 47 -84.3 -3.319
19:05 1020 30.12 849 25.07 13.2 55.8 73 8.4 47.1 -84.3 -3.319
19:06 1020 30.12 849 25.07 13.2 55.7 73 8.4 47.1 -84.4 -3.323
19:07 1020 30.12 849 25.07 13.2 55.7 73 8.6 47.5 -84.4 -3.323
19:08 1020 30.12 849 25.07 13.1 55.6 73 8.3 47 -84.4 -3.323
19:09 1020 30.12 849 25.07 13.1 55.5 73 8.3 47 -84.4 -3.323
19:10 1020 30.12 849 25.07 13 55.4 74 8.5 47.4 -84.5 -3.327
19:11 1020 30.12 849 25.07 12.9 55.2 75 8.5 47.3 -84.5 -3.327
19:12 1020 30.12 849 25.07 12.9 55.1 75 8.6 47.4 -84.5 -3.327
19:13 1020 30.12 849 25.07 12.8 55.1 74 8.3 47 -84.5 -3.327
19:14 1020 30.12 849 25.07 12.9 55.1 74 8.5 47.2 -84.5 -3.327
19:15 1020 30.12 849 25.07 12.8 55 75 8.5 47.2 -84.5 -3.327
19:16 1020 30.12 849 25.07 12.7 54.8 75 8.4 47.1 -84.6 -3.331
19:17 1020 30.12 849 25.07 12.7 54.8 74 8.3 46.9 -84.6 -3.331
19:18 1020 30.12 849 25.07 12.6 54.7 75 8.3 47 -84.6 -3.331
19:19 1020 30.12 849 25.07 12.6 54.7 75 8.3 46.9 -84.6 -3.331
19:20 1020 30.12 850 25.1 12.5 54.6 75 8.3 46.9 -84.7 -3.335
19:21 1020 30.12 849 25.07 12.5 54.4 74 8.1 46.5 -84.7 -3.335
19:22 1020 30.12 849 25.07 12.5 54.5 74 8 46.3 -84.7 -3.335
19:23 1020 30.12 849 25.07 12.6 54.7 73 7.9 46.3 -84.7 -3.335
19:24 1020 30.12 849 25.07 12.6 54.6 73 7.9 46.2 -84.7 -3.335
19:25 1020 30.12 849 25.07 12.4 54.4 74 8 46.4 -84.7 -3.335
19:26 1020 30.12 849 25.07 12.3 54.1 74 7.8 46.1 -84.7 -3.335
19:27 1020 30.12 849 25.07 12.3 54.2 73 7.6 45.8 -84.8 -3.339
19:28 1020 30.12 850 25.1 12.5 54.4 71 7.4 45.4 -84.8 -3.339
19:29 1020 30.12 849 25.07 12.6 54.7 71 7.5 45.5 -84.8 -3.339
19:30 1020 30.12 849 25.07 12.7 54.9 71 7.6 45.7 -84.8 -3.339
19:31 1020 30.12 850 25.1 12.8 55 71 7.6 45.8 -84.9 -3.343
19:32 1020 30.12 849 25.07 12.8 55 70 7.5 45.4 -84.9 -3.343
19:33 1020 30.12 849 25.07 12.8 55 70 7.5 45.6 -84.9 -3.343
19:34 1020 30.12 849 25.07 12.8 55 70 7.5 45.5 -84.9 -3.343
19:35 1020 30.12 849 25.07 12.9 55.1 69 7.3 45.2 -85 -3.346
19:36 1020 30.12 849 25.07 12.9 55.3 69 7.4 45.4 -85 -3.346
19:37 1020 30.12 849 25.07 12.9 55.3 69 7.4 45.3 -85 -3.346
19:38 1020 30.12 849 25.07 13 55.3 69 7.5 45.5 -85.1 -3.35
19:39 1020 30.12 849 25.07 13 55.3 69 7.4 45.3 -85.1 -3.35
19:40 1020 30.12 849 25.07 13.1 55.5 68 7.4 45.3 -85.2 -3.354
19:41 1020 30.12 849 25.07 13.1 55.6 68 7.4 45.3 -85.3 -3.358
19:42 1020 30.12 850 25.1 13.1 55.6 69 7.6 45.7 -85.4 -3.362
19:43 1020 30.12 850 25.1 13 55.4 69 7.5 45.6 -85.6 -3.37
19:44 1020 30.12 850 25.1 12.9 55.2 70 7.7 45.9 -85.7 -3.374
19:45 1020 30.12 850 25.1 12.8 55 71 7.6 45.6 -85.8 -3.378
19:46 1020 30.12 850 25.1 12.6 54.7 71 7.5 45.6 -85.9 -3.382
19:47 1020 30.12 850 25.1 12.6 54.6 71 7.5 45.5 -86.1 -3.39
19:48 1020 30.12 850 25.1 12.5 54.5 71 7.4 45.4 -86.2 -3.394
19:49 1020 30.12 850 25.1 12.6 54.6 72 7.6 45.6 -86.3 -3.398
19:50 1020 30.12 849 25.07 12.5 54.5 71 7.5 45.5 -86.4 -3.402
19:51 1020 30.12 850 25.1 12.5 54.5 71 7.4 45.3 -86.5 -3.406
19:52 1020 30.12 850 25.1 12.4 54.3 71 7.3 45.2 -86.6 -3.409
19:53 1020 30.12 850 25.1 12.4 54.3 71 7.4 45.4 -86.7 -3.413
19:54 1020 30.12 850 25.1 12.3 54.2 72 7.4 45.4 -86.7 -3.413
19:55 1020 30.12 850 25.1 12.3 54.1 71 7.3 45.1 -86.8 -3.417
19:56 1020 30.12 850 25.1 12.3 54.1 71 7.2 45 -86.9 -3.421
19:57 1020 30.12 850 25.1 12.3 54.1 71 7.3 45.1 -86.9 -3.421
19:58 1020 30.12 850 25.1 12.2 54 71 7.2 44.9 -87 -3.425
19:59 1020 30.12 850 25.1 12.2 54 71 7.2 44.9 -87 -3.425
20:00 1020 30.12 850 25.1 12.1 53.9 71 7.1 44.9 -87 -3.425
20:01 1020 30.12 850 25.1 12.1 53.7 70 6.8 44.2 -87.1 -3.429
20:02 1020 30.12 850 25.1 12.3 54.1 69 6.7 44.1 -87.1 -3.429
20:03 1020 30.12 850 25.1 12.4 54.4 67 6.5 43.8 -87.2 -3.433
20:04 1020 30.12 850 25.1 12.6 54.6 67 6.7 44.1 -87.2 -3.433
20:05 1020 30.12 850 25.1 12.6 54.6 67 6.7 44 -87.2 -3.433
20:06 1020 30.12 850 25.1 12.5 54.5 68 6.8 44.2 -87.3 -3.437
20:07 1020 30.12 850 25.1 12.4 54.4 68 6.8 44.2 -87.3 -3.437
20:08 1020 30.12 850 25.1 12.3 54.2 68 6.7 44.1 -87.4 -3.441
20:09 1020 30.12 850 25.1 12.4 54.2 67 6.5 43.7 -87.4 -3.441
20:10 1020 30.12 850 25.1 12.5 54.5 65 6.1 43 -87.4 -3.441
20:11 1020 30.12 850 25.1 12.8 55 64 6.2 43.1 -87.4 -3.441
20:12 1020 30.12 850 25.1 12.9 55.2 64 6.3 43.4 -87.5 -3.445
20:13 1020 30.12 850 25.1 13 55.3 64 6.3 43.3 -87.5 -3.445
20:14 1020 30.12 850 25.1 13 55.4 63 6.2 43.1 -87.6 -3.449
20:15 1020 30.12 850 25.1 13.2 55.7 62 6.1 43 -87.6 -3.449
20:16 1020 30.12 850 25.1 13.3 55.9 62 6.2 43.2 -87.6 -3.449
20:17 1020 30.12 850 25.1 13.2 55.8 63 6.4 43.6 -87.7 -3.453
20:18 1020 30.12 850 25.1 13.1 55.5 64 6.4 43.4 -87.7 -3.453
20:19 1020 30.12 850 25.1 13 55.3 63 6.2 43.2 -87.7 -3.453
20:20 1020 30.12 850 25.1 13 55.4 63 6.1 43 -87.7 -3.453
20:21 1020 30.12 850 25.1 13.2 55.7 60 5.6 42.1 -87.7 -3.453
20:22 1020 30.12 850 25.1 13.5 56.2 60 5.8 42.5 -87.8 -3.457
20:23 1020 30.12 850 25.1 13.7 56.6 59 5.8 42.4 -87.8 -3.457
20:24 1020 30.12 850 25.1 13.7 56.6 58 5.7 42.3 -87.8 -3.457
20:25 1020 30.12 850 25.1 13.7 56.6 60 6.1 43 -87.8 -3.457
20:26 1020 30.12 850 25.1 13.6 56.4 60 6.1 42.9 -87.8 -3.457
20:27 1020 30.12 850 25.1 13.5 56.2 60 6 42.8 -87.9 -3.461
20:28 1020 30.12 850 25.1 13.3 56 61 6.1 43 -87.9 -3.461
20:29 1020 30.12 850 25.1 13.1 55.6 62 6 42.9 -87.9 -3.461
20:30 1020 30.12 850 25.1 13.1 55.5 62 6.1 42.9 -87.9 -3.461
20:31 1020 30.12 850 25.1 13 55.4 62 5.9 42.6 -87.9 -3.461
20:32 1020 30.12 850 25.1 13.1 55.5 62 6 42.8 -87.9 -3.461
20:33 1020 30.12 850 25.1 13 55.5 62 6 42.9 -87.9 -3.461
20:34 1020 30.12 850 25.1 12.9 55.3 63 6.1 43 -88 -3.465
20:35 1020 30.12 849 25.07 12.8 55.1 63 6.1 43 -88 -3.465
20:36 1020 30.12 850 25.1 12.8 55 64 6.2 43.1 -88 -3.465
20:37 1020 30.12 850 25.1 12.6 54.8 64 6.2 43.1 -88 -3.465
20:38 1020 30.12 850 25.1 12.6 54.7 63 5.8 42.5 -88 -3.465
20:39 1020 30.12 850 25.1 12.8 55 62 5.7 42.3 -88 -3.465
20:40 1020 30.12 849 25.07 12.9 55.3 61 5.7 42.3 -88 -3.465
20:41 1020 30.12 849 25.07 13 55.5 62 5.9 42.6 -88 -3.465
20:42 1020 30.12 850 25.1 13 55.4 63 6.1 43 -88 -3.465
20:43 1020 30.12 850 25.1 12.9 55.2 63 6.1 43 -88 -3.465
20:44 1020 30.12 850 25.1 12.8 55.1 63 5.9 42.7 -88 -3.465
20:45 1020 30.12 850 25.1 12.8 55.1 63 6.1 42.9 -88 -3.465
20:46 1020 30.12 850 25.1 12.7 54.9 64 6.2 43.2 -88 -3.465
20:47 1020 30.12 850 25.1 12.5 54.6 65 6.2 43.2 -88 -3.465
20:48 1020 30.12 850 25.1 12.4 54.3 66 6.2 43.1 -88 -3.465
20:49 1020 30.12 850 25.1 12.3 54.1 66 6.1 42.9 -88.1 -3.469
20:50 1020 30.12 850 25.1 12.2 54 66 6.1 43 -88.1 -3.469
20:51 1020 30.12 850 25.1 12.2 54 66 6 42.9 -88.1 -3.469
20:52 1020 30.12 850 25.1 12.1 53.9 66 6.1 42.9 -88.1 -3.469
20:53 1020 30.12 850 25.1 12 53.6 67 6.1 42.9 -88.1 -3.469
20:54 1020 30.12 850 25.1 11.9 53.4 67 5.9 42.7 -88.1 -3.469
20:55 1020 30.12 850 25.1 12 53.5 66 5.8 42.4 -88.1 -3.469
20:56 1020 30.12 850 25.1 12 53.5 67 6 42.8 -88.1 -3.469
20:57 1020 30.12 850 25.1 11.9 53.4 67 5.9 42.7 -88.1 -3.469
20:58 1020 30.12 850 25.1 11.9 53.4 66 5.8 42.4 -88.1 -3.469
20:59 1020 30.12 850 25.1 12 53.5 66 5.9 42.7 -88.1 -3.469
21:00 1020 30.12 850 25.1 11.9 53.4 66 5.9 42.5 -88.1 -3.469
21:01 1020 30.12 850 25.1 11.9 53.3 66 5.8 42.4 -88.1 -3.469
21:02 1020 30.12 850 25.1 11.9 53.4 66 5.8 42.5 -88.1 -3.469
21:03 1021 30.15 850 25.1 11.8 53.3 67 5.8 42.5 -88.1 -3.469
21:04 1020 30.12 850 25.1 11.9 53.3 66 5.7 42.3 -88.2 -3.472
21:05 1021 30.15 850 25.1 11.9 53.4 66 5.7 42.3 -88.2 -3.472
21:06 1021 30.15 850 25.1 11.9 53.4 65 5.6 42 -88.2 -3.472
21:07 1021 30.15 850 25.1 12 53.7 64 5.4 41.7 -88.2 -3.472
21:08 1021 30.15 850 25.1 12.2 53.9 64 5.6 42 -88.2 -3.472
21:09 1021 30.15 850 25.1 12.2 53.9 64 5.7 42.3 -88.2 -3.472
21:10 1021 30.15 850 25.1 12.2 53.9 64 5.6 42 -88.2 -3.472
21:11 1021 30.15 850 25.1 12.2 53.9 64 5.6 42.1 -88.2 -3.472
21:12 1021 30.15 850 25.1 12.1 53.9 64 5.7 42.2 -88.2 -3.472
21:13 1021 30.15 850 25.1 12 53.7 65 5.6 42.2 -88.2 -3.472
21:14 1021 30.15 850 25.1 11.9 53.5 65 5.6 42.1 -88.2 -3.472
21:15 1021 30.15 850 25.1 11.9 53.3 65 5.6 42.1 -88.2 -3.472
21:16 1021 30.15 850 25.1 11.9 53.4 64 5.4 41.7 -88.2 -3.472
21:17 1021 30.15 850 25.1 12 53.6 64 5.4 41.7 -88.2 -3.472
21:18 1021 30.15 850 25.1 12.2 53.9 63 5.3 41.5 -88.2 -3.472
21:19 1021 30.15 850 25.1 12.4 54.3 63 5.5 41.9 -88.2 -3.472
21:20 1021 30.15 850 25.1 12.4 54.2 62 5.4 41.7 -88.3 -3.476
21:21 1021 30.15 850 25.1 12.3 54.1 62 5.3 41.5 -88.3 -3.476
21:22 1021 30.15 850 25.1 12.4 54.2 61 5.2 41.3 -88.3 -3.476
21:23 1021 30.15 850 25.1 12.4 54.4 61 5.2 41.4 -88.3 -3.476
21:24 1021 30.15 850 25.1 12.4 54.4 62 5.4 41.7 -88.3 -3.476
21:25 1021 30.15 850 25.1 12.4 54.3 62 5.4 41.8 -88.3 -3.476
21:26 1021 30.15 850 25.1 12.3 54.1 63 5.4 41.8 -88.3 -3.476
21:27 1021 30.15 850 25.1 12.2 54 63 5.4 41.7 -88.3 -3.476
21:28 1021 30.15 850 25.1 12.2 54 62 5.3 41.5 -88.3 -3.476
21:29 1021 30.15 850 25.1 12.3 54.1 63 5.4 41.7 -88.3 -3.476
21:30 1021 30.15 850 25.1 12.2 54 63 5.5 41.9 -88.3 -3.476
21:31 1021 30.15 850 25.1 12.2 53.9 63 5.3 41.6 -88.3 -3.476
21:32 1021 30.15 850 25.1 12.2 54 62 5.1 41.2 -88.3 -3.476
21:33 1021 30.15 850 25.1 12.4 54.2 62 5.3 41.5 -88.3 -3.476
21:34 1021 30.15 850 25.1 12.3 54.1 62 5.3 41.5 -88.3 -3.476
21:35 1021 30.15 850 25.1 12.2 54 62 5.3 41.5 -88.4 -3.48
21:36 1020 30.12 850 25.1 12.2 53.9 61 4.9 40.9 -88.4 -3.48
21:37 1021 30.15 850 25.1 12.3 54.1 61 5 41.1 -88.4 -3.48
21:38 1021 30.15 850 25.1 12.4 54.2 61 5 41.1 -88.4 -3.48
21:39 1021 30.15 850 25.1 12.4 54.4 61 5.1 41.3 -88.4 -3.48
21:40 1021 30.15 850 25.1 12.4 54.3 60 5 41 -88.4 -3.48
21:41 1021 30.15 850 25.1 12.4 54.3 61 5.1 41.1 -88.4 -3.48
21:42 1021 30.15 850 25.1 12.4 54.3 61 5.1 41.1 -88.4 -3.48
21:43 1021 30.15 850 25.1 12.4 54.4 60 5 41 -88.4 -3.48
21:44 1021 30.15 850 25.1 12.5 54.5 59 4.8 40.7 -88.4 -3.48
21:45 1021 30.15 850 25.1 12.5 54.5 59 4.9 40.8 -88.4 -3.48
21:46 1021 30.15 850 25.1 12.6 54.6 60 5 41.1 -88.4 -3.48
21:47 1021 30.15 850 25.1 12.6 54.7 59 4.8 40.6 -88.4 -3.48
21:48 1021 30.15 850 25.1 12.8 55 58 4.7 40.5 -88.4 -3.48
21:49 1021 30.15 850 25.1 13 55.3 57 4.7 40.5 -88.4 -3.48
21:50 1021 30.15 850 25.1 13.1 55.6 57 4.8 40.7 -88.4 -3.48
21:51 1021 30.15 850 25.1 13 55.4 57 4.8 40.7 -88.4 -3.48
21:52 1021 30.15 850 25.1 12.9 55.2 58 4.9 40.8 -88.4 -3.48
21:53 1021 30.15 850 25.1 12.9 55.2 58 4.9 40.8 -88.4 -3.48
21:54 1021 30.15 850 25.1 12.8 55 58 4.9 40.8 -88.4 -3.48
21:55 1021 30.15 850 25.1 12.7 54.9 58 4.8 40.7 -88.4 -3.48
21:56 1021 30.15 850 25.1 12.7 54.9 59 4.9 40.7 -88.4 -3.48
21:57 1021 30.15 850 25.1 12.6 54.7 59 4.9 40.8 -88.5 -3.484
21:58 1021 30.15 850 25.1 12.5 54.5 59 4.8 40.6 -88.4 -3.48
21:59 1021 30.15 850 25.1 12.5 54.6 59 4.7 40.4 -88.5 -3.484
22:00 1021 30.15 850 25.1 12.5 54.5 59 4.8 40.6 -88.5 -3.484
22:01 1021 30.15 850 25.1 12.5 54.4 59 4.6 40.4 -88.5 -3.484
22:02 1021 30.15 850 25.1 12.5 54.5 58 4.7 40.4 -88.5 -3.484
22:03 1021 30.15 850 25.1 12.7 54.8 58 4.6 40.3 -88.5 -3.484
22:04 1021 30.15 850 25.1 12.7 54.8 58 4.8 40.6 -88.5 -3.484
22:05 1021 30.15 850 25.1 12.6 54.7 58 4.6 40.4 -88.5 -3.484
22:06 1021 30.15 850 25.1 12.6 54.8 57 4.5 40.1 -88.5 -3.484
22:07 1021 30.15 850 25.1 12.7 54.9 57 4.5 40.1 -88.5 -3.484
22:08 1021 30.15 850 25.1 12.8 55 58 4.7 40.5 -88.5 -3.484
22:09 1021 30.15 850 25.1 12.7 54.8 58 4.8 40.6 -88.5 -3.484
22:10 1021 30.15 850 25.1 12.5 54.6 58 4.6 40.2 -88.5 -3.484
22:11 1021 30.15 850 25.1 12.6 54.6 58 4.7 40.4 -88.5 -3.484
22:12 1021 30.15 850 25.1 12.6 54.6 58 4.6 40.3 -88.5 -3.484
22:13 1021 30.15 850 25.1 12.5 54.5 58 4.6 40.3 -88.5 -3.484
22:14 1021 30.15 850 25.1 12.5 54.4 58 4.6 40.2 -88.5 -3.484
22:15 1021 30.15 850 25.1 12.5 54.4 59 4.6 40.3 -88.5 -3.484
22:16 1021 30.15 850 25.1 12.5 54.4 59 4.7 40.4 -88.5 -3.484
22:17 1021 30.15 850 25.1 12.4 54.4 59 4.6 40.3 -88.5 -3.484
22:18 1021 30.15 850 25.1 12.4 54.4 58 4.3 39.8 -88.5 -3.484
22:19 1021 30.15 850 25.1 12.6 54.7 57 4.5 40.1 -88.5 -3.484
22:20 1021 30.15 850 25.1 12.7 54.8 57 4.4 40 -88.5 -3.484
22:21 1021 30.15 850 25.1 12.7 54.8 58 4.6 40.3 -88.5 -3.484
22:22 1021 30.15 850 25.1 12.6 54.6 59 4.8 40.6 -88.5 -3.484
22:23 1021 30.15 850 25.1 12.4 54.3 59 4.8 40.6 -88.5 -3.484
22:24 1021 30.15 850 25.1 12.2 54 60 4.7 40.4 -88.5 -3.484
22:25 1021 30.15 850 25.1 12.2 53.9 59 4.4 40 -88.5 -3.484
22:26 1021 30.15 850 25.1 12.3 54.2 58 4.3 39.7 -88.5 -3.484
22:27 1021 30.15 850 25.1 12.5 54.5 57 4.3 39.7 -88.6 -3.488
22:28 1021 30.15 850 25.1 12.6 54.7 57 4.4 39.9 -88.6 -3.488
22:29 1021 30.15 850 25.1 12.6 54.8 57 4.3 39.8 -88.6 -3.488
22:30 1021 30.15 850 25.1 12.7 54.9 57 4.4 39.9 -88.6 -3.488
22:31 1021 30.15 850 25.1 12.7 54.8 57 4.5 40.2 -88.6 -3.488
22:32 1021 30.15 850 25.1 12.5 54.5 58 4.4 39.9 -88.6 -3.488
22:33 1021 30.15 850 25.1 12.5 54.4 58 4.4 39.9 -88.6 -3.488
22:34 1021 30.15 850 25.1 12.4 54.4 57 4.2 39.6 -88.6 -3.488
22:35 1021 30.15 850 25.1 12.6 54.7 57 4.3 39.7 -88.6 -3.488
22:36 1021 30.15 850 25.1 12.6 54.7 56 4.2 39.5 -88.6 -3.488
22:37 1021 30.15 850 25.1 12.8 55.1 55 4 39.2 -88.6 -3.488
22:38 1021 30.15 850 25.1 13 55.3 54 4 39.3 -88.6 -3.488
22:39 1021 30.15 850 25.1 12.9 55.3 55 4.2 39.5 -88.6 -3.488
22:40 1021 30.15 850 25.1 13 55.3 53 3.8 38.8 -88.6 -3.488
22:41 1021 30.15 850 25.1 13.1 55.6 54 4.1 39.4 -88.6 -3.488
22:42 1021 30.15 850 25.1 13.1 55.5 55 4.2 39.6 -88.6 -3.488
22:43 1021 30.15 850 25.1 12.8 55.1 56 4.4 40 -88.6 -3.488
22:44 1021 30.15 850 25.1 12.6 54.6 57 4.5 40 -88.6 -3.488
22:45 1021 30.15 850 25.1 12.4 54.3 59 4.5 40.2 -88.6 -3.488
22:46 1021 30.15 850 25.1 12.2 53.9 59 4.3 39.8 -88.6 -3.488
22:47 1021 30.15 850 25.1 12.1 53.8 59 4.3 39.7 -88.6 -3.488
22:48 1021 30.15 850 25.1 12.1 53.8 58 4.1 39.4 -88.6 -3.488
22:49 1021 30.15 850 25.1 12.2 54 58 4.2 39.5 -88.6 -3.488
22:50 1021 30.15 850 25.1 12.4 54.2 57 4.3 39.7 -88.6 -3.488
22:51 1021 30.15 850 25.1 12.3 54.2 58 4.4 39.9 -88.6 -3.488
22:52 1021 30.15 850 25.1 12.2 53.9 58 4.3 39.7 -88.6 -3.488
22:53 1021 30.15 850 25.1 12.2 54 58 4.3 39.8 -88.6 -3.488
22:54 1021 30.15 850 25.1 12.2 54 58 4.2 39.6 -88.6 -3.488
22:55 1021 30.15 850 25.1 12.2 54 58 4.4 39.9 -88.6 -3.488
22:56 1021 30.15 850 25.1 12.2 54 58 4.3 39.7 -88.6 -3.488
22:57 1021 30.15 850 25.1 12.2 53.9 58 4.3 39.7 -88.6 -3.488
22:58 1021 30.15 850 25.1 12.1 53.8 59 4.4 39.9 -88.6 -3.488
22:59 1021 30.15 850 25.1 12 53.5 60 4.4 39.9 -88.6 -3.488
23:00 1021 30.15 850 25.1 11.8 53.3 59 4.3 39.7 -88.6 -3.488
23:01 1021 30.15 850 25.1 11.8 53.3 60 4.3 39.7 -88.6 -3.488
23:02 1021 30.15 850 25.1 11.9 53.3 59 4.1 39.5 -88.6 -3.488
23:03 1021 30.15 850 25.1 11.9 53.4 59 4.3 39.7 -88.6 -3.488
23:04 1021 30.15 850 25.1 11.9 53.4 59 4.3 39.7 -88.6 -3.488
23:05 1021 30.15 850 25.1 11.8 53.3 60 4.3 39.8 -88.6 -3.488
23:06 1021 30.15 850 25.1 11.8 53.3 59 4.2 39.5 -88.6 -3.488
23:07 1021 30.15 850 25.1 11.9 53.5 58 4.1 39.4 -88.6 -3.488
23:08 1021 30.15 850 25.1 12.1 53.8 58 4.1 39.5 -88.6 -3.488
23:09 1021 30.15 850 25.1 12.2 54 57 4.1 39.3 -88.6 -3.488
23:10 1021 30.15 850 25.1 12.2 54 57 4.1 39.4 -88.6 -3.488
23:11 1021 30.15 850 25.1 12.2 54 58 4.3 39.8 -88.6 -3.488
23:12 1021 30.15 850 25.1 12.1 53.9 58 4.2 39.5 -88.6 -3.488
23:13 1021 30.15 850 25.1 12.2 53.9 57 4 39.2 -88.7 -3.492
23:14 1021 30.15 850 25.1 12.3 54.1 57 3.9 39.1 -88.7 -3.492
23:15 1021 30.15 850 25.1 12.4 54.3 56 3.9 38.9 -88.7 -3.492
23:16 1021 30.15 850 25.1 12.5 54.5 55 3.8 38.8 -88.7 -3.492
23:17 1021 30.15 850 25.1 12.7 54.8 54 3.6 38.4 -88.7 -3.492
23:18 1021 30.15 850 25.1 12.8 55.1 53 3.5 38.4 -88.7 -3.492
23:19 1021 30.15 850 25.1 13 55.3 53 3.7 38.7 -88.7 -3.492
23:20 1021 30.15 850 25.1 12.9 55.3 53 3.7 38.7 -88.7 -3.492
23:21 1021 30.15 850 25.1 13 55.4 53 3.7 38.7 -88.7 -3.492
23:22 1021 30.15 850 25.1 13 55.4 53 3.7 38.7 -88.7 -3.492
23:23 1021 30.15 850 25.1 13 55.3 54 3.8 38.9 -88.7 -3.492
23:24 1021 30.15 850 25.1 12.9 55.2 54 3.8 38.8 -88.7 -3.492
23:25 1021 30.15 850 25.1 12.8 55 54 3.8 38.9 -88.7 -3.492
23:26 1021 30.15 850 25.1 12.7 54.9 54 3.7 38.7 -88.7 -3.492
23:27 1021 30.15 850 25.1 12.7 54.8 54 3.7 38.7 -88.7 -3.492
23:28 1021 30.15 850 25.1 12.6 54.7 55 3.7 38.7 -88.7 -3.492
23:29 1021 30.15 850 25.1 12.5 54.4 55 3.8 38.9 -88.7 -3.492
23:30 1021 30.15 850 25.1 12.3 54.1 56 3.9 39 -88.7 -3.492
23:31 1021 30.15 850 25.1 12.2 54 56 3.7 38.6 -88.7 -3.492
23:32 1021 30.15 850 25.1 12.3 54.2 55 3.6 38.6 -88.7 -3.492
23:33 1021 30.15 850 25.1 12.4 54.4 56 3.9 39 -88.7 -3.492
23:34 1021 30.15 850 25.1 12.4 54.4 55 3.8 38.8 -88.7 -3.492
23:35 1021 30.15 850 25.1 12.5 54.6 55 3.7 38.7 -88.7 -3.492
23:36 1021 30.15 850 25.1 12.5 54.6 56 4 39.1 -88.7 -3.492
23:37 1021 30.15 850 25.1 12.3 54.2 56 4 39.2 -88.7 -3.492
23:38 1021 30.15 850 25.1 12.2 54 56 3.8 38.9 -88.7 -3.492
23:39 1021 30.15 850 25.1 12.3 54.2 56 3.8 38.9 -88.7 -3.492
23:40 1021 30.15 850 25.1 12.5 54.5 55 3.8 38.8 -88.7 -3.492
23:41 1021 30.15 850 25.1 12.6 54.7 55 3.9 39 -88.7 -3.492
23:42 1021 30.15 850 25.1 12.7 54.8 54 3.7 38.6 -88.7 -3.492
23:43 1021 30.15 850 25.1 12.8 55 53 3.5 38.2 -88.8 -3.496
23:44 1021 30.15 850 25.1 12.9 55.2 53 3.7 38.7 -88.8 -3.496
23:45 1021 30.15 850 25.1 13 55.3 51 3.1 37.6 -88.8 -3.496
23:46 1021 30.15 850 25.1 13.2 55.8 51 3.3 38 -88.8 -3.496
23:47 1021 30.15 850 25.1 13.4 56.1 52 3.7 38.7 -88.8 -3.496
23:48 1021 30.15 850 25.1 13.3 55.9 52 3.8 38.9 -88.8 -3.496
23:49 1021 30.15 850 25.1 13.1 55.5 54 4.2 39.5 -88.8 -3.496
23:50 1021 30.15 850 25.1 12.7 54.8 55 4 39.1 -88.8 -3.496
23:51 1021 30.15 850 25.1 12.6 54.6 55 3.8 38.9 -88.8 -3.496
23:52 1021 30.15 850 25.1 12.5 54.5 56 3.9 39 -88.8 -3.496
23:53 1021 30.15 850 25.1 12.5 54.4 55 3.8 38.8 -88.8 -3.496
23:54 1021 30.15 850 25.1 12.6 54.6 54 3.7 38.6 -88.8 -3.496
23:55 1021 30.15 850 25.1 12.8 55 54 3.8 38.9 -88.8 -3.496
23:56 1021 30.15 850 25.1 12.9 55.1 53 3.7 38.6 -88.8 -3.496
23:57 1021 30.15 850 25.1 13 55.4 52 3.4 38.2 -88.8 -3.496
23:58 1021 30.15 850 25.1 13.2 55.7 52 3.7 38.7 -88.8 -3.496
23:59 1021 30.15 850 25.1 13.1 55.6 53 3.8 38.8 -88.8 -3.496
24:00 1021 30.15 850 25.1 13.1 55.5 53 3.8 38.9 -88.8 -3.496